Observation data for Romero 11SSW on 02/20/2019      Previous  Date  Next       Current Mesonet Observations  Soil Data  Daily Summary Page  Observations in Plain Language
KBR1 200600Z 20009KT M07/M09 A2976 RMK A01 T10731089  RH  088%=      5-min Rain = 0
KBR1 200601Z 21008KT M07/M09 A2976 RMK A01 T10731090  RH  088%=      5-min Rain = 0
KBR1 200602Z 21008KT M07/M09 A2976 RMK A01 T10731090  RH  087%=      5-min Rain = 0
KBR1 200603Z 21008KT M07/M09 A2976 RMK A01 T10731092  RH  087%=      5-min Rain = 0
KBR1 200604Z 21007KT M08/M09 A2976 RMK A01 T10751093  RH  087%=      5-min Rain = 0
KBR1 200605Z 21007KT M08/M10 A2976 RMK A01 T10761095  RH  087%=      5-min Rain = 0
KBR1 200606Z 21006KT M08/M10 A2976 RMK A01 T10781096  RH  087%=      5-min Rain = 0
KBR1 200607Z 21006KT M08/M10 A2976 RMK A01 T10791098  RH  086%=      5-min Rain = 0
KBR1 200608Z 21007KT M08/M10 A2976 RMK A01 T10811100  RH  086%=      5-min Rain = 0
KBR1 200609Z 21007KT M08/M10 A2976 RMK A01 T10831101  RH  087%=      5-min Rain = 0
KBR1 200610Z 21007KT M08/M10 A2976 RMK A01 T10841102  RH  087%=      5-min Rain = 0
KBR1 200611Z 22006KT M09/M10 A2976 RMK A01 T10851103  RH  087%=      5-min Rain = 0
KBR1 200612Z 22006KT M09/M10 A2976 RMK A01 T10861104  RH  087%=      5-min Rain = 0
KBR1 200613Z 22006KT M09/M11 A2976 RMK A01 T10881106  RH  087%=      5-min Rain = 0
KBR1 200614Z 22005KT M09/M11 A2976 RMK A01 T10891106  RH  087%=      5-min Rain = 0
KBR1 200615Z 22005KT M09/M11 A2976 RMK A01 T10901108  RH  087%=      5-min Rain = 0
KBR1 200616Z 22005KT M09/M11 A2976 RMK A01 T10921109  RH  087%=      5-min Rain = 0
KBR1 200617Z 22005KT M09/M11 A2976 RMK A01 T10931110  RH  088%=      5-min Rain = 0
KBR1 200618Z 22005KT M09/M11 A2976 RMK A01 T10941110  RH  088%=      5-min Rain = 0
KBR1 200619Z 21005KT M10/M11 A2976 RMK A01 T10951111  RH  088%=      5-min Rain = 0
KBR1 200620Z 21005KT M10/M11 A2976 RMK A01 T10951111  RH  088%=      5-min Rain = 0
KBR1 200621Z 21005KT M10/M11 A2976 RMK A01 T10961111  RH  089%=      5-min Rain = 0
KBR1 200622Z 21006KT M10/M11 A2976 RMK A01 T10961110  RH  089%=      5-min Rain = 0
KBR1 200623Z 21006KT M10/M11 A2976 RMK A01 T10961110  RH  090%=      5-min Rain = 0
KBR1 200624Z 21006KT M10/M11 A2976 RMK A01 T10961110  RH  090%=      5-min Rain = 0
KBR1 200625Z 21006KT M10/M11 A2976 RMK A01 T10971111  RH  089%=      5-min Rain = 0
KBR1 200626Z 21006KT M10/M11 A2975 RMK A01 T10981112  RH  089%=      5-min Rain = 0
KBR1 200627Z 21007KT M10/M11 A2975 RMK A01 T10981112  RH  089%=      5-min Rain = 0
KBR1 200628Z 21007KT M10/M11 A2975 RMK A01 T10981111  RH  090%=      5-min Rain = 0
KBR1 200629Z 20007KT M10/M11 A2975 RMK A01 T10971110  RH  090%=      5-min Rain = 0
KBR1 200630Z 20008KT M10/M11 A2975 RMK A01 T10961109  RH  090%=      5-min Rain = 0
KBR1 200631Z 20008KT M09/M11 A2975 RMK A01 T10941107  RH  091%=      5-min Rain = 0
KBR1 200632Z 20008KT M09/M10 A2975 RMK A01 T10911102  RH  091%=      5-min Rain = 0
KBR1 200633Z 20008KT M09/M10 A2975 RMK A01 T10871099  RH  092%=      5-min Rain = 0
KBR1 200634Z 20008KT M09/M10 A2975 RMK A01 T10851097  RH  091%=      5-min Rain = 0
KBR1 200635Z 20008KT M08/M10 A2975 RMK A01 T10841097  RH  090%=      5-min Rain = 0
KBR1 200636Z 20008KT M08/M10 A2975 RMK A01 T10831097  RH  090%=      5-min Rain = 0
KBR1 200637Z 21007KT M08/M10 A2975 RMK A01 T10821097  RH  089%=      5-min Rain = 0
KBR1 200638Z 20007KT M08/M10 A2975 RMK A01 T10821098  RH  088%=      5-min Rain = 0
KBR1 200639Z 21008KT M08/M10 A2975 RMK A01 T10821098  RH  088%=      5-min Rain = 0
KBR1 200640Z 21008KT M08/M10 A2975 RMK A01 T10821099  RH  087%=      5-min Rain = 0
KBR1 200641Z 21008KT M08/M10 A2975 RMK A01 T10821099  RH  087%=      5-min Rain = 0
KBR1 200642Z 21008KT M08/M10 A2975 RMK A01 T10821099  RH  087%=      5-min Rain = 0
KBR1 200643Z 21008KT M08/M10 A2975 RMK A01 T10821099  RH  087%=      5-min Rain = 0
KBR1 200644Z 21008KT M08/M10 A2975 RMK A01 T10811099  RH  087%=      5-min Rain = 0
KBR1 200645Z 21009KT M08/M10 A2975 RMK A01 T10811098  RH  087%=      5-min Rain = 0
KBR1 200646Z 21009KT M08/M10 A2974 RMK A01 T10791096  RH  087%=      5-min Rain = 0
KBR1 200647Z 21009KT M08/M10 A2974 RMK A01 T10781095  RH  088%=      5-min Rain = 0
KBR1 200648Z 21009KT M08/M09 A2974 RMK A01 T10761093  RH  088%=      5-min Rain = 0
KBR1 200649Z 21009KT M07/M09 A2974 RMK A01 T10741091  RH  088%=      5-min Rain = 0
KBR1 200650Z 21010KT M07/M09 A2974 RMK A01 T10731090  RH  087%=      5-min Rain = 0
KBR1 200651Z 21010KT M07/M09 A2974 RMK A01 T10701088  RH  087%=      5-min Rain = 0
KBR1 200652Z 21010KT M07/M09 A2974 RMK A01 T10691087  RH  087%=      5-min Rain = 0
KBR1 200653Z 21010KT M07/M09 A2974 RMK A01 T10681087  RH  087%=      5-min Rain = 0
KBR1 200654Z 21011KT M07/M09 A2974 RMK A01 T10671085  RH  087%=      5-min Rain = 0
KBR1 200655Z 22011KT M07/M08 A2974 RMK A01 T10651084  RH  087%=      5-min Rain = 0
KBR1 200656Z 21011KT M07/M08 A2974 RMK A01 T10651084  RH  087%=      5-min Rain = 0
KBR1 200657Z 21011KT M07/M08 A2974 RMK A01 T10651083  RH  087%=      5-min Rain = 0
KBR1 200658Z 22011KT M06/M08 A2974 RMK A01 T10641082  RH  087%=      5-min Rain = 0
KBR1 200659Z 22012KT M06/M08 A2974 RMK A01 T10631080  RH  088%=      5-min Rain = 0
KBR1 200700Z 21013KT M06/M08 A2974 RMK A01 T10621078  RH  088%=      5-min Rain = 0
KBR1 200701Z 21013KT M06/M08 A2974 RMK A01 T10601076  RH  088%=      5-min Rain = 0
KBR1 200702Z 21012KT M06/M08 A2974 RMK A01 T10591075  RH  088%=      5-min Rain = 0
KBR1 200703Z 22013KT M06/M08 A2974 RMK A01 T10581076  RH  088%=      5-min Rain = 0
KBR1 200704Z 22013KT M06/M08 A2974 RMK A01 T10581075  RH  088%=      5-min Rain = 0
KBR1 200705Z 22013KT M06/M07 A2974 RMK A01 T10571074  RH  088%=      5-min Rain = 0
KBR1 200706Z 22012KT M06/M08 A2974 RMK A01 T10571075  RH  087%=      5-min Rain = 0
KBR1 200707Z 22013KT M06/M08 A2974 RMK A01 T10571075  RH  087%=      5-min Rain = 0
KBR1 200708Z 22012KT M06/M08 A2974 RMK A01 T10571075  RH  087%=      5-min Rain = 0
KBR1 200709Z 22012KT M06/M07 A2974 RMK A01 T10571074  RH  088%=      5-min Rain = 0
KBR1 200710Z 22013KT M06/M07 A2974 RMK A01 T10571074  RH  088%=      5-min Rain = 0
KBR1 200711Z 22013KT M06/M08 A2974 RMK A01 T10571075  RH  088%=      5-min Rain = 0
KBR1 200712Z 22013KT M06/M07 A2974 RMK A01 T10571074  RH  088%=      5-min Rain = 0
KBR1 200713Z 22014KT M06/M07 A2974 RMK A01 T10571074  RH  088%=      5-min Rain = 0
KBR1 200714Z 22012KT M06/M07 A2974 RMK A01 T10581074  RH  088%=      5-min Rain = 0
KBR1 200715Z 22013KT M06/M08 A2974 RMK A01 T10581075  RH  088%=      5-min Rain = 0
KBR1 200716Z 22014KT M06/M07 A2974 RMK A01 T10581074  RH  088%=      5-min Rain = 0
KBR1 200717Z 22013KT M06/M07 A2974 RMK A01 T10581074  RH  089%=      5-min Rain = 0
KBR1 200718Z 22013KT M06/M07 A2974 RMK A01 T10581074  RH  088%=      5-min Rain = 0
KBR1 200719Z 22013KT M06/M07 A2974 RMK A01 T10581074  RH  089%=      5-min Rain = 0
KBR1 200720Z 22012KT M06/M07 A2974 RMK A01 T10581074  RH  089%=      5-min Rain = 0
KBR1 200721Z 22011KT M06/M07 A2974 RMK A01 T10581074  RH  089%=      5-min Rain = 0
KBR1 200722Z 22011KT M06/M07 A2974 RMK A01 T10591074  RH  089%=      5-min Rain = 0
KBR1 200723Z 22011KT M06/M07 A2974 RMK A01 T10591074  RH  089%=      5-min Rain = 0
KBR1 200724Z 23010KT M06/M07 A2974 RMK A01 T10591074  RH  089%=      5-min Rain = 0
KBR1 200725Z 23010KT M06/M08 A2974 RMK A01 T10591075  RH  089%=      5-min Rain = 0
KBR1 200726Z 23009KT M06/M08 A2974 RMK A01 T10601075  RH  089%=      5-min Rain = 0
KBR1 200727Z 23009KT M06/M08 A2974 RMK A01 T10601075  RH  089%=      5-min Rain = 0
KBR1 200728Z 23009KT M06/M08 A2974 RMK A01 T10601076  RH  089%=      5-min Rain = 0
KBR1 200729Z 23009KT M06/M08 A2974 RMK A01 T10611077  RH  089%=      5-min Rain = 0
KBR1 200730Z 23009KT M06/M08 A2974 RMK A01 T10611077  RH  089%=      5-min Rain = 0
KBR1 200731Z 23009KT M06/M08 A2974 RMK A01 T10621077  RH  089%=      5-min Rain = 0
KBR1 200732Z 23010KT M06/M08 A2974 RMK A01 T10631078  RH  089%=      5-min Rain = 0
KBR1 200733Z 23009KT M06/M08 A2974 RMK A01 T10631078  RH  089%=      5-min Rain = 0
KBR1 200734Z 23009KT M06/M08 A2974 RMK A01 T10631079  RH  089%=      5-min Rain = 0
KBR1 200735Z 23008KT M06/M08 A2974 RMK A01 T10641079  RH  089%=      5-min Rain = 0
KBR1 200736Z 23008KT M06/M08 A2974 RMK A01 T10641079  RH  089%=      5-min Rain = 0
KBR1 200737Z 23009KT M06/M08 A2974 RMK A01 T10641079  RH  089%=      5-min Rain = 0
KBR1 200738Z 23008KT M07/M08 A2974 RMK A01 T10651080  RH  089%=      5-min Rain = 0
KBR1 200739Z 23009KT M07/M08 A2974 RMK A01 T10661081  RH  089%=      5-min Rain = 0
KBR1 200740Z 23008KT M07/M08 A2974 RMK A01 T10671082  RH  089%=      5-min Rain = 0
KBR1 200741Z 23008KT M07/M08 A2974 RMK A01 T10671082  RH  089%=      5-min Rain = 0
KBR1 200742Z 23008KT M07/M08 A2974 RMK A01 T10671082  RH  089%=      5-min Rain = 0
KBR1 200743Z 23007KT M07/M08 A2974 RMK A01 T10671082  RH  089%=      5-min Rain = 0
KBR1 200744Z 23008KT M07/M08 A2974 RMK A01 T10691084  RH  089%=      5-min Rain = 0
KBR1 200745Z 24008KT M07/M08 A2974 RMK A01 T10691084  RH  089%=      5-min Rain = 0
KBR1 200746Z 24008KT M07/M08 A2974 RMK A01 T10691084  RH  089%=      5-min Rain = 0
KBR1 200747Z 24008KT M07/M08 A2974 RMK A01 T10691084  RH  090%=      5-min Rain = 0
KBR1 200748Z 24009KT M07/M08 A2974 RMK A01 T10691083  RH  090%=      5-min Rain = 0
KBR1 200749Z 24009KT M07/M08 A2974 RMK A01 T10691083  RH  090%=      5-min Rain = 0
KBR1 200750Z 24009KT M07/M08 A2974 RMK A01 T10691083  RH  089%=      5-min Rain = 0
KBR1 200751Z 23009KT M07/M08 A2974 RMK A01 T10691083  RH  089%=      5-min Rain = 0
KBR1 200752Z 23009KT M07/M08 A2974 RMK A01 T10691083  RH  089%=      5-min Rain = 0
KBR1 200753Z 23009KT M07/M08 A2973 RMK A01 T10691084  RH  089%=      5-min Rain = 0
KBR1 200754Z 23009KT M07/M08 A2973 RMK A01 T10691084  RH  089%=      5-min Rain = 0
KBR1 200755Z 23009KT M07/M08 A2973 RMK A01 T10681083  RH  089%=      5-min Rain = 0
KBR1 200756Z 23009KT M07/M08 A2973 RMK A01 T10681083  RH  089%=      5-min Rain = 0
KBR1 200757Z 23009KT M07/M08 A2973 RMK A01 T10681083  RH  089%=      5-min Rain = 0
KBR1 200758Z 23008KT M07/M08 A2973 RMK A01 T10681083  RH  089%=      5-min Rain = 0
KBR1 200759Z 24008KT M07/M08 A2973 RMK A01 T10681083  RH  089%=      5-min Rain = 0
KBR1 200800Z 23008KT M07/M08 A2973 RMK A01 T10681083  RH  089%=      5-min Rain = 0
KBR1 200801Z 24008KT M07/M08 A2973 RMK A01 T10681084  RH  088%=      5-min Rain = 0
KBR1 200802Z 23008KT M07/M09 A2973 RMK A01 T10691085  RH  088%=      5-min Rain = 0
KBR1 200803Z 23007KT M07/M09 A2973 RMK A01 T10691085  RH  088%=      5-min Rain = 0
KBR1 200804Z 23008KT M07/M09 A2973 RMK A01 T10701087  RH  088%=      5-min Rain = 0
KBR1 200805Z 23007KT M07/M09 A2973 RMK A01 T10711088  RH  088%=      5-min Rain = 0
KBR1 200806Z 23007KT M07/M09 A2973 RMK A01 T10721089  RH  088%=      5-min Rain = 0
KBR1 200807Z 24006KT M07/M09 A2973 RMK A01 T10731089  RH  088%=      5-min Rain = 0
KBR1 200808Z 24007KT M07/M09 A2974 RMK A01 T10741090  RH  088%=      5-min Rain = 0
KBR1 200809Z 24007KT M07/M09 A2974 RMK A01 T10741090  RH  088%=      5-min Rain = 0
KBR1 200810Z 24007KT M07/M09 A2973 RMK A01 T10741090  RH  089%=      5-min Rain = 0
KBR1 200811Z 23007KT M08/M09 A2973 RMK A01 T10751091  RH  089%=      5-min Rain = 0
KBR1 200812Z 23006KT M08/M09 A2973 RMK A01 T10761092  RH  088%=      5-min Rain = 0
KBR1 200813Z 22007KT M08/M09 A2973 RMK A01 T10771093  RH  088%=      5-min Rain = 0
KBR1 200814Z 22007KT M08/M09 A2973 RMK A01 T10781094  RH  088%=      5-min Rain = 0
KBR1 200815Z 22007KT M08/M09 A2973 RMK A01 T10791094  RH  089%=      5-min Rain = 0
KBR1 200816Z 22007KT M08/M09 A2973 RMK A01 T10791094  RH  089%=      5-min Rain = 0
KBR1 200817Z 22007KT M08/M09 A2973 RMK A01 T10791094  RH  089%=      5-min Rain = 0
KBR1 200818Z 22007KT M08/M09 A2973 RMK A01 T10801094  RH  089%=      5-min Rain = 0
KBR1 200819Z 22006KT M08/M10 A2973 RMK A01 T10801095  RH  089%=      5-min Rain = 0
KBR1 200820Z 22006KT M08/M10 A2973 RMK A01 T10811096  RH  089%=      5-min Rain = 0
KBR1 200821Z 22005KT M08/M10 A2973 RMK A01 T10821097  RH  089%=      5-min Rain = 0
KBR1 200822Z 23004KT M08/M10 A2973 RMK A01 T10831099  RH  089%=      5-min Rain = 0
KBR1 200823Z 24003KT M08/M10 A2973 RMK A01 T10831098  RH  089%=      5-min Rain = 0
KBR1 200824Z 26003KT M08/M10 A2973 RMK A01 T10841098  RH  089%=      5-min Rain = 0
KBR1 200825Z 30003KT M08/M10 A2974 RMK A01 T10841098  RH  090%=      5-min Rain = 0
KBR1 200826Z 30003KT M08/M10 A2974 RMK A01 T10841098  RH  090%=      5-min Rain = 0
KBR1 200827Z 32003KT M08/M10 A2974 RMK A01 T10841098  RH  090%=      5-min Rain = 0
KBR1 200828Z 30003KT M08/M10 A2973 RMK A01 T10841097  RH  090%=      5-min Rain = 0
KBR1 200829Z 29003KT M08/M10 A2973 RMK A01 T10831096  RH  090%=      5-min Rain = 0
KBR1 200830Z 30002KT M08/M10 A2973 RMK A01 T10831097  RH  090%=      5-min Rain = 0
KBR1 200831Z 29002KT M08/M10 A2973 RMK A01 T10841097  RH  090%=      5-min Rain = 0
KBR1 200832Z 28002KT M08/M10 A2973 RMK A01 T10841097  RH  090%=      5-min Rain = 0
KBR1 200833Z 28003KT M08/M10 A2973 RMK A01 T10841097  RH  090%=      5-min Rain = 0
KBR1 200834Z 27005KT M08/M10 A2973 RMK A01 T10841097  RH  090%=      5-min Rain = 0
KBR1 200835Z 27005KT M08/M09 A2973 RMK A01 T10821094  RH  091%=      5-min Rain = 0
KBR1 200836Z 26005KT M08/M09 A2973 RMK A01 T10811094  RH  091%=      5-min Rain = 0
KBR1 200837Z 25006KT M08/M09 A2973 RMK A01 T10811094  RH  090%=      5-min Rain = 0
KBR1 200838Z 26006KT M08/M09 A2973 RMK A01 T10801093  RH  090%=      5-min Rain = 0
KBR1 200839Z 26006KT M08/M09 A2973 RMK A01 T10791092  RH  090%=      5-min Rain = 0
KBR1 200840Z 26006KT M08/M09 A2973 RMK A01 T10791093  RH  090%=      5-min Rain = 0
KBR1 200841Z 25007KT M08/M09 A2973 RMK A01 T10791094  RH  089%=      5-min Rain = 0
KBR1 200842Z 25007KT M08/M10 A2973 RMK A01 T10801095  RH  089%=      5-min Rain = 0
KBR1 200843Z 25007KT M08/M10 A2973 RMK A01 T10801095  RH  089%=      5-min Rain = 0
KBR1 200844Z 24009KT M08/M09 A2973 RMK A01 T10791093  RH  090%=      5-min Rain = 0
KBR1 200845Z 24009KT M08/M09 A2973 RMK A01 T10771089  RH  091%=      5-min Rain = 0
KBR1 200846Z 24009KT M07/M09 A2973 RMK A01 T10741086  RH  091%=      5-min Rain = 0
KBR1 200847Z 24010KT M07/M08 A2973 RMK A01 T10711083  RH  091%=      5-min Rain = 0
KBR1 200848Z 24010KT M07/M08 A2973 RMK A01 T10691081  RH  091%=      5-min Rain = 0
KBR1 200849Z 24010KT M07/M08 A2973 RMK A01 T10671079  RH  091%=      5-min Rain = 0
KBR1 200850Z 24011KT M07/M08 A2973 RMK A01 T10651079  RH  090%=      5-min Rain = 0
KBR1 200851Z 24011KT M06/M08 A2973 RMK A01 T10631077  RH  090%=      5-min Rain = 0
KBR1 200852Z 24011KT M06/M08 A2973 RMK A01 T10611076  RH  089%=      5-min Rain = 0
KBR1 200853Z 24011KT M06/M08 A2973 RMK A01 T10601075  RH  089%=      5-min Rain = 0
KBR1 200854Z 25010KT M06/M08 A2973 RMK A01 T10591076  RH  088%=      5-min Rain = 0
KBR1 200855Z 24010KT M06/M08 A2973 RMK A01 T10591076  RH  088%=      5-min Rain = 0
KBR1 200856Z 24010KT M06/M08 A2973 RMK A01 T10591077  RH  088%=      5-min Rain = 0
KBR1 200857Z 24009KT M06/M08 A2973 RMK A01 T10601077  RH  087%=      5-min Rain = 0
KBR1 200858Z 25011KT M06/M08 A2973 RMK A01 T10591077  RH  088%=      5-min Rain = 0
KBR1 200859Z 24010KT M06/M08 A2973 RMK A01 T10601077  RH  088%=      5-min Rain = 0
KBR1 200900Z 24012KT M06/M08 A2973 RMK A01 T10601077  RH  088%=      5-min Rain = 0
KBR1 200901Z 24011KT M06/M08 A2973 RMK A01 T10591076  RH  088%=      5-min Rain = 0
KBR1 200902Z 24010KT M06/M08 A2973 RMK A01 T10591076  RH  087%=      5-min Rain = 0
KBR1 200903Z 24011KT M06/M08 A2973 RMK A01 T10591077  RH  087%=      5-min Rain = 0
KBR1 200904Z 24010KT M06/M08 A2973 RMK A01 T10601078  RH  087%=      5-min Rain = 0
KBR1 200905Z 24010KT M06/M08 A2973 RMK A01 T10601078  RH  087%=      5-min Rain = 0
KBR1 200906Z 24011KT M06/M08 A2973 RMK A01 T10601078  RH  088%=      5-min Rain = 0
KBR1 200907Z 24011KT M06/M08 A2973 RMK A01 T10611078  RH  088%=      5-min Rain = 0
KBR1 200908Z 24012KT M06/M08 A2973 RMK A01 T10611078  RH  087%=      5-min Rain = 0
KBR1 200909Z 24013KT M06/M08 A2973 RMK A01 T10601078  RH  087%=      5-min Rain = 0
KBR1 200910Z 24012KT M06/M08 A2973 RMK A01 T10601078  RH  087%=      5-min Rain = 0
KBR1 200911Z 24013KT M06/M08 A2973 RMK A01 T10601078  RH  087%=      5-min Rain = 0
KBR1 200912Z 24013KT M06/M08 A2973 RMK A01 T10601078  RH  087%=      5-min Rain = 0
KBR1 200913Z 24012KT M06/M08 A2973 RMK A01 T10601079  RH  086%=      5-min Rain = 0
KBR1 200914Z 24013KT M06/M08 A2973 RMK A01 T10601079  RH  086%=      5-min Rain = 0
KBR1 200915Z 23013KT M06/M08 A2973 RMK A01 T10601080  RH  086%=      5-min Rain = 0
KBR1 200916Z 23013KT M06/M08 A2973 RMK A01 T10601080  RH  086%=      5-min Rain = 0
KBR1 200917Z 24013KT M06/M08 A2973 RMK A01 T10601080  RH  086%=      5-min Rain = 0
KBR1 200918Z 24012KT M06/M08 A2973 RMK A01 T10601080  RH  086%=      5-min Rain = 0
KBR1 200919Z 23013KT M06/M08 A2973 RMK A01 T10601080  RH  085%=      5-min Rain = 0
KBR1 200920Z 24012KT M06/M08 A2973 RMK A01 T10591081  RH  085%=      5-min Rain = 0
KBR1 200921Z 24012KT M06/M08 A2973 RMK A01 T10601081  RH  085%=      5-min Rain = 0
KBR1 200922Z 23013KT M06/M08 A2973 RMK A01 T10601082  RH  085%=      5-min Rain = 0
KBR1 200923Z 23012KT M06/M08 A2973 RMK A01 T10601082  RH  084%=      5-min Rain = 0
KBR1 200924Z 24012KT M06/M08 A2973 RMK A01 T10601082  RH  084%=      5-min Rain = 0
KBR1 200925Z 24012KT M06/M08 A2973 RMK A01 T10601083  RH  084%=      5-min Rain = 0
KBR1 200926Z 24012KT M06/M08 A2973 RMK A01 T10601083  RH  084%=      5-min Rain = 0
KBR1 200927Z 24012KT M06/M08 A2973 RMK A01 T10601083  RH  083%=      5-min Rain = 0
KBR1 200928Z 24011KT M06/M08 A2973 RMK A01 T10601084  RH  083%=      5-min Rain = 0
KBR1 200929Z 24011KT M06/M08 A2973 RMK A01 T10601084  RH  083%=      5-min Rain = 0
KBR1 200930Z 24011KT M06/M09 A2973 RMK A01 T10611085  RH  083%=      5-min Rain = 0
KBR1 200931Z 24011KT M06/M09 A2973 RMK A01 T10611085  RH  083%=      5-min Rain = 0
KBR1 200932Z 24011KT M06/M09 A2973 RMK A01 T10611086  RH  083%=      5-min Rain = 0
KBR1 200933Z 24010KT M06/M09 A2973 RMK A01 T10621087  RH  083%=      5-min Rain = 0
KBR1 200934Z 23010KT M06/M09 A2973 RMK A01 T10631087  RH  083%=      5-min Rain = 0
KBR1 200935Z 23010KT M06/M09 A2973 RMK A01 T10641088  RH  083%=      5-min Rain = 0
KBR1 200936Z 24010KT M07/M09 A2973 RMK A01 T10651088  RH  084%=      5-min Rain = 0
KBR1 200937Z 24010KT M07/M09 A2973 RMK A01 T10651088  RH  084%=      5-min Rain = 0
KBR1 200938Z 24011KT M07/M09 A2973 RMK A01 T10661088  RH  084%=      5-min Rain = 0
KBR1 200939Z 23011KT M07/M09 A2973 RMK A01 T10661088  RH  084%=      5-min Rain = 0
KBR1 200940Z 24011KT M07/M09 A2973 RMK A01 T10651088  RH  084%=      5-min Rain = 0
KBR1 200941Z 24010KT M07/M09 A2973 RMK A01 T10651088  RH  084%=      5-min Rain = 0
KBR1 200942Z 24011KT M07/M09 A2972 RMK A01 T10661089  RH  084%=      5-min Rain = 0
KBR1 200943Z 24010KT M07/M09 A2972 RMK A01 T10661089  RH  084%=      5-min Rain = 0
KBR1 200944Z 24010KT M07/M09 A2972 RMK A01 T10671089  RH  084%=      5-min Rain = 0
KBR1 200945Z 24010KT M07/M09 A2972 RMK A01 T10671090  RH  084%=      5-min Rain = 0
KBR1 200946Z 23009KT M07/M09 A2972 RMK A01 T10681091  RH  084%=      5-min Rain = 0
KBR1 200947Z 24010KT M07/M09 A2972 RMK A01 T10681091  RH  084%=      5-min Rain = 0
KBR1 200948Z 23010KT M07/M09 A2972 RMK A01 T10681091  RH  084%=      5-min Rain = 0
KBR1 200949Z 23010KT M07/M09 A2972 RMK A01 T10691091  RH  084%=      5-min Rain = 0
KBR1 200950Z 24010KT M07/M09 A2972 RMK A01 T10691091  RH  084%=      5-min Rain = 0
KBR1 200951Z 23010KT M07/M09 A2972 RMK A01 T10691092  RH  084%=      5-min Rain = 0
KBR1 200952Z 24010KT M07/M09 A2972 RMK A01 T10701092  RH  084%=      5-min Rain = 0
KBR1 200953Z 23009KT M07/M09 A2973 RMK A01 T10701092  RH  084%=      5-min Rain = 0
KBR1 200954Z 23010KT M07/M09 A2973 RMK A01 T10711093  RH  084%=      5-min Rain = 0
KBR1 200955Z 24009KT M07/M09 A2973 RMK A01 T10711093  RH  084%=      5-min Rain = 0
KBR1 200956Z 24009KT M07/M09 A2973 RMK A01 T10721094  RH  084%=      5-min Rain = 0
KBR1 200957Z 24009KT M07/M09 A2973 RMK A01 T10721094  RH  084%=      5-min Rain = 0
KBR1 200958Z 24009KT M07/M09 A2973 RMK A01 T10721094  RH  085%=      5-min Rain = 0
KBR1 200959Z 24009KT M07/M09 A2973 RMK A01 T10721094  RH  085%=      5-min Rain = 0
KBR1 201000Z 24009KT M07/M09 A2973 RMK A01 T10721094  RH  084%=      5-min Rain = 0
KBR1 201001Z 24009KT M07/M10 A2973 RMK A01 T10731095  RH  084%=      5-min Rain = 0
KBR1 201002Z 24009KT M07/M10 A2973 RMK A01 T10731095  RH  084%=      5-min Rain = 0
KBR1 201003Z 24008KT M07/M10 A2973 RMK A01 T10741096  RH  084%=      5-min Rain = 0
KBR1 201004Z 24008KT M08/M10 A2973 RMK A01 T10751096  RH  085%=      5-min Rain = 0
KBR1 201005Z 24007KT M08/M10 A2973 RMK A01 T10751097  RH  085%=      5-min Rain = 0
KBR1 201006Z 24008KT M08/M10 A2973 RMK A01 T10761097  RH  085%=      5-min Rain = 0
KBR1 201007Z 24008KT M08/M10 A2973 RMK A01 T10771098  RH  085%=      5-min Rain = 0
KBR1 201008Z 24008KT M08/M10 A2973 RMK A01 T10771098  RH  085%=      5-min Rain = 0
KBR1 201009Z 24008KT M08/M10 A2973 RMK A01 T10771098  RH  085%=      5-min Rain = 0
KBR1 201010Z 25008KT M08/M10 A2973 RMK A01 T10771097  RH  085%=      5-min Rain = 0
KBR1 201011Z 24008KT M08/M10 A2973 RMK A01 T10781098  RH  085%=      5-min Rain = 0
KBR1 201012Z 25008KT M08/M10 A2973 RMK A01 T10781099  RH  085%=      5-min Rain = 0
KBR1 201013Z 25008KT M08/M10 A2973 RMK A01 T10781099  RH  085%=      5-min Rain = 0
KBR1 201014Z 24009KT M08/M10 A2973 RMK A01 T10781099  RH  085%=      5-min Rain = 0
KBR1 201015Z 24009KT M08/M10 A2973 RMK A01 T10781098  RH  085%=      5-min Rain = 0
KBR1 201016Z 24009KT M08/M10 A2973 RMK A01 T10771099  RH  085%=      5-min Rain = 0
KBR1 201017Z 25009KT M08/M10 A2973 RMK A01 T10771099  RH  085%=      5-min Rain = 0
KBR1 201018Z 24009KT M08/M10 A2973 RMK A01 T10761099  RH  084%=      5-min Rain = 0
KBR1 201019Z 25008KT M08/M10 A2973 RMK A01 T10761099  RH  084%=      5-min Rain = 0
KBR1 201020Z 25008KT M08/M10 A2973 RMK A01 T10761100  RH  083%=      5-min Rain = 0
KBR1 201021Z 25008KT M08/M10 A2973 RMK A01 T10761100  RH  083%=      5-min Rain = 0
KBR1 201022Z 25006KT M08/M10 A2973 RMK A01 T10751099  RH  083%=      5-min Rain = 0
KBR1 201023Z 24006KT M08/M10 A2973 RMK A01 T10751100  RH  082%=      5-min Rain = 0
KBR1 201024Z 24006KT M08/M10 A2973 RMK A01 T10761101  RH  082%=      5-min Rain = 0
KBR1 201025Z 24006KT M08/M10 A2973 RMK A01 T10761101  RH  082%=      5-min Rain = 0
KBR1 201026Z 24006KT M08/M10 A2973 RMK A01 T10761101  RH  082%=      5-min Rain = 0
KBR1 201027Z 24007KT M08/M10 A2973 RMK A01 T10761101  RH  082%=      5-min Rain = 0
KBR1 201028Z 25007KT M08/M10 A2973 RMK A01 T10751100  RH  082%=      5-min Rain = 0
KBR1 201029Z 24007KT M07/M10 A2973 RMK A01 T10741099  RH  082%=      5-min Rain = 0
KBR1 201030Z 24007KT M07/M10 A2973 RMK A01 T10731098  RH  082%=      5-min Rain = 0
KBR1 201031Z 25007KT M07/M10 A2973 RMK A01 T10721098  RH  081%=      5-min Rain = 0
KBR1 201032Z 25007KT M07/M10 A2973 RMK A01 T10711098  RH  081%=      5-min Rain = 0
KBR1 201033Z 24007KT M07/M10 A2973 RMK A01 T10711098  RH  081%=      5-min Rain = 0
KBR1 201034Z 25007KT M07/M10 A2973 RMK A01 T10701097  RH  081%=      5-min Rain = 0
KBR1 201035Z 25008KT M07/M10 A2973 RMK A01 T10681096  RH  081%=      5-min Rain = 0
KBR1 201036Z 25008KT M07/M10 A2973 RMK A01 T10671095  RH  081%=      5-min Rain = 0
KBR1 201037Z 25008KT M07/M10 A2973 RMK A01 T10661095  RH  080%=      5-min Rain = 0
KBR1 201038Z 25009KT M06/M09 A2973 RMK A01 T10641093  RH  080%=      5-min Rain = 0
KBR1 201039Z 25010KT M06/M09 A2973 RMK A01 T10621091  RH  079%=      5-min Rain = 0
KBR1 201040Z 25008KT M06/M09 A2973 RMK A01 T10601091  RH  079%=      5-min Rain = 0
KBR1 201041Z 25008KT M06/M09 A2973 RMK A01 T10591091  RH  078%=      5-min Rain = 0
KBR1 201042Z 25009KT M06/M09 A2973 RMK A01 T10591091  RH  078%=      5-min Rain = 0
KBR1 201043Z 25008KT M06/M09 A2973 RMK A01 T10571089  RH  078%=      5-min Rain = 0
KBR1 201044Z 26009KT M06/M09 A2973 RMK A01 T10561088  RH  078%=      5-min Rain = 0
KBR1 201045Z 26009KT M06/M09 A2973 RMK A01 T10551087  RH  078%=      5-min Rain = 0
KBR1 201046Z 26011KT M05/M09 A2973 RMK A01 T10541087  RH  078%=      5-min Rain = 0
KBR1 201047Z 26009KT M05/M09 A2973 RMK A01 T10521086  RH  077%=      5-min Rain = 0
KBR1 201048Z 26008KT M05/M09 A2973 RMK A01 T10521087  RH  076%=      5-min Rain = 0
KBR1 201049Z 27009KT M05/M09 A2973 RMK A01 T10521088  RH  076%=      5-min Rain = 0
KBR1 201050Z 28007KT M05/M09 A2973 RMK A01 T10531088  RH  076%=      5-min Rain = 0
KBR1 201051Z 28007KT M05/M09 A2973 RMK A01 T10541088  RH  077%=      5-min Rain = 0
KBR1 201052Z 28007KT M06/M09 A2973 RMK A01 T10551089  RH  077%=      5-min Rain = 0
KBR1 201053Z 27007KT M06/M09 A2973 RMK A01 T10561090  RH  077%=      5-min Rain = 0
KBR1 201054Z 27007KT M06/M09 A2973 RMK A01 T10561089  RH  077%=      5-min Rain = 0
KBR1 201055Z 26007KT M06/M09 A2973 RMK A01 T10561090  RH  077%=      5-min Rain = 0
KBR1 201056Z 26008KT M06/M09 A2973 RMK A01 T10571091  RH  077%=      5-min Rain = 0
KBR1 201057Z 25008KT M06/M09 A2973 RMK A01 T10561091  RH  077%=      5-min Rain = 0
KBR1 201058Z 25008KT M06/M09 A2973 RMK A01 T10561091  RH  077%=      5-min Rain = 0
KBR1 201059Z 25009KT M06/M09 A2973 RMK A01 T10571091  RH  077%=      5-min Rain = 0
KBR1 201100Z 25008KT M06/M09 A2973 RMK A01 T10571091  RH  076%=      5-min Rain = 0
KBR1 201101Z 24009KT M06/M09 A2973 RMK A01 T10571092  RH  076%=      5-min Rain = 0
KBR1 201102Z 24009KT M06/M09 A2973 RMK A01 T10571092  RH  077%=      5-min Rain = 0
KBR1 201103Z 24009KT M06/M09 A2973 RMK A01 T10561092  RH  076%=      5-min Rain = 0
KBR1 201104Z 24009KT M06/M09 A2973 RMK A01 T10561092  RH  076%=      5-min Rain = 0
KBR1 201105Z 24010KT M06/M09 A2973 RMK A01 T10561092  RH  076%=      5-min Rain = 0
KBR1 201106Z 24010KT M06/M09 A2973 RMK A01 T10561092  RH  076%=      5-min Rain = 0
KBR1 201107Z 25010KT M06/M09 A2973 RMK A01 T10551091  RH  076%=      5-min Rain = 0
KBR1 201108Z 25011KT M06/M09 A2973 RMK A01 T10551092  RH  075%=      5-min Rain = 0
KBR1 201109Z 26011KT M05/M09 A2973 RMK A01 T10541091  RH  075%=      5-min Rain = 0
KBR1 201110Z 26012KT M05/M09 A2973 RMK A01 T10531091  RH  075%=      5-min Rain = 0
KBR1 201111Z 26011KT M05/M09 A2973 RMK A01 T10521091  RH  074%=      5-min Rain = 0
KBR1 201112Z 26010KT M05/M09 A2973 RMK A01 T10521091  RH  074%=      5-min Rain = 0
KBR1 201113Z 26011KT M05/M09 A2973 RMK A01 T10521091  RH  074%=      5-min Rain = 0
KBR1 201114Z 26011KT M05/M09 A2973 RMK A01 T10521091  RH  074%=      5-min Rain = 0
KBR1 201115Z 26010KT M05/M09 A2973 RMK A01 T10521092  RH  074%=      5-min Rain = 0
KBR1 201116Z 26011KT M05/M09 A2973 RMK A01 T10521092  RH  074%=      5-min Rain = 0
KBR1 201117Z 26010KT M05/M09 A2973 RMK A01 T10531092  RH  074%=      5-min Rain = 0
KBR1 201118Z 27011KT M05/M09 A2972 RMK A01 T10531092  RH  074%=      5-min Rain = 0
KBR1 201119Z 27011G16KT M05/M09 A2972 RMK A01 T10531092  RH  074%=      5-min Rain = 0
KBR1 201120Z 27013KT M05/M09 A2972 RMK A01 T10521092  RH  073%=      5-min Rain = 0
KBR1 201121Z 27012KT M05/M09 A2972 RMK A01 T10501092  RH  073%=      5-min Rain = 0
KBR1 201122Z 27011KT M05/M09 A2972 RMK A01 T10491091  RH  072%=      5-min Rain = 0
KBR1 201123Z 27011KT M05/M09 A2972 RMK A01 T10491092  RH  072%=      5-min Rain = 0
KBR1 201124Z 27013KT M05/M09 A2972 RMK A01 T10491092  RH  072%=      5-min Rain = 0
KBR1 201125Z 27012KT M05/M09 A2972 RMK A01 T10491091  RH  072%=      5-min Rain = 0
KBR1 201126Z 27013KT M05/M09 A2972 RMK A01 T10491091  RH  072%=      5-min Rain = 0
KBR1 201127Z 27012KT M05/M09 A2972 RMK A01 T10481091  RH  072%=      5-min Rain = 0
KBR1 201128Z 27013KT M05/M09 A2972 RMK A01 T10471091  RH  071%=      5-min Rain = 0
KBR1 201129Z 27012KT M05/M09 A2972 RMK A01 T10461091  RH  071%=      5-min Rain = 0
KBR1 201130Z 27014KT M05/M09 A2972 RMK A01 T10461091  RH  071%=      5-min Rain = 0
KBR1 201131Z 27013KT M05/M09 A2972 RMK A01 T10451091  RH  071%=      5-min Rain = 0
KBR1 201132Z 27014KT M04/M09 A2972 RMK A01 T10441091  RH  070%=      5-min Rain = 0
KBR1 201133Z 26015KT M04/M09 A2972 RMK A01 T10441091  RH  070%=      5-min Rain = 0
KBR1 201134Z 26014KT M04/M09 A2972 RMK A01 T10431091  RH  069%=      5-min Rain = 0
KBR1 201135Z 26015KT M04/M09 A2972 RMK A01 T10431091  RH  069%=      5-min Rain = 0
KBR1 201136Z 26013KT M04/M09 A2972 RMK A01 T10421091  RH  069%=      5-min Rain = 0
KBR1 201137Z 26014KT M04/M09 A2972 RMK A01 T10421091  RH  069%=      5-min Rain = 0
KBR1 201138Z 27014KT M04/M09 A2972 RMK A01 T10421091  RH  069%=      5-min Rain = 0
KBR1 201139Z 26013KT M04/M09 A2972 RMK A01 T10421091  RH  069%=      5-min Rain = 0
KBR1 201140Z 26012KT M04/M09 A2972 RMK A01 T10421091  RH  069%=      5-min Rain = 0
KBR1 201141Z 26013KT M04/M09 A2972 RMK A01 T10431091  RH  069%=      5-min Rain = 0
KBR1 201142Z 27012KT M04/M09 A2972 RMK A01 T10431091  RH  069%=      5-min Rain = 0
KBR1 201143Z 26013KT M04/M09 A2972 RMK A01 T10431091  RH  069%=      5-min Rain = 0
KBR1 201144Z 27012KT M04/M09 A2972 RMK A01 T10431091  RH  069%=      5-min Rain = 0
KBR1 201145Z 27012KT M04/M09 A2972 RMK A01 T10441091  RH  069%=      5-min Rain = 0
KBR1 201146Z 26012KT M04/M09 A2972 RMK A01 T10441091  RH  069%=      5-min Rain = 0
KBR1 201147Z 27011KT M04/M09 A2972 RMK A01 T10441091  RH  069%=      5-min Rain = 0
KBR1 201148Z 27013KT M04/M09 A2972 RMK A01 T10441091  RH  069%=      5-min Rain = 0
KBR1 201149Z 27011KT M04/M09 A2973 RMK A01 T10431091  RH  069%=      5-min Rain = 0
KBR1 201150Z 27012KT M04/M09 A2973 RMK A01 T10431091  RH  069%=      5-min Rain = 0
KBR1 201151Z 27012KT M04/M09 A2973 RMK A01 T10441092  RH  069%=      5-min Rain = 0
KBR1 201152Z 27011KT M04/M09 A2973 RMK A01 T10441092  RH  069%=      5-min Rain = 0
KBR1 201153Z 27012KT M05/M09 A2972 RMK A01 T10451092  RH  069%=      5-min Rain = 0
KBR1 201154Z 27012KT M04/M09 A2972 RMK A01 T10441092  RH  069%=      5-min Rain = 0
KBR1 201155Z 27012KT M05/M09 A2972 RMK A01 T10451092  RH  069%=      5-min Rain = 0
KBR1 201156Z 27012KT M05/M09 A2972 RMK A01 T10451092  RH  069%=      5-min Rain = 0
KBR1 201157Z 27013KT M05/M09 A2973 RMK A01 T10451092  RH  069%=      5-min Rain = 0
KBR1 201158Z 27012KT M05/M09 A2973 RMK A01 T10451092  RH  069%=      5-min Rain = 0
KBR1 201159Z 27011KT M05/M09 A2973 RMK A01 T10451093  RH  069%=      5-min Rain = 0
KBR1 201200Z 27012KT M05/M09 A2973 RMK A01 T10451093  RH  070%=      5-min Rain = 0
KBR1 201201Z 28011KT M05/M09 A2973 RMK A01 T10461093  RH  070%=      5-min Rain = 0
KBR1 201202Z 27012KT M05/M09 A2973 RMK A01 T10461093  RH  070%=      5-min Rain = 0
KBR1 201203Z 27011KT M05/M09 A2973 RMK A01 T10471093  RH  070%=      5-min Rain = 0
KBR1 201204Z 27011KT M05/M09 A2973 RMK A01 T10471093  RH  070%=      5-min Rain = 0
KBR1 201205Z 27011KT M05/M09 A2973 RMK A01 T10471093  RH  070%=      5-min Rain = 0
KBR1 201206Z 26013KT M05/M09 A2973 RMK A01 T10481094  RH  070%=      5-min Rain = 0
KBR1 201207Z 26012KT M05/M09 A2973 RMK A01 T10481094  RH  070%=      5-min Rain = 0
KBR1 201208Z 26013KT M05/M10 A2972 RMK A01 T10481095  RH  070%=      5-min Rain = 0
KBR1 201209Z 26014KT M05/M10 A2972 RMK A01 T10481095  RH  070%=      5-min Rain = 0
KBR1 201210Z 26013KT M05/M10 A2972 RMK A01 T10471095  RH  070%=      5-min Rain = 0
KBR1 201211Z 26014KT M05/M09 A2972 RMK A01 T10471094  RH  069%=      5-min Rain = 0
KBR1 201212Z 26013KT M05/M09 A2972 RMK A01 T10471094  RH  069%=      5-min Rain = 0
KBR1 201213Z 26014KT M05/M09 A2972 RMK A01 T10471094  RH  069%=      5-min Rain = 0
KBR1 201214Z 26013KT M05/M10 A2973 RMK A01 T10471095  RH  069%=      5-min Rain = 0
KBR1 201215Z 26012KT M05/M10 A2973 RMK A01 T10471095  RH  069%=      5-min Rain = 0
KBR1 201216Z 27013KT M05/M10 A2973 RMK A01 T10471095  RH  069%=      5-min Rain = 0
KBR1 201217Z 27012KT M05/M10 A2973 RMK A01 T10461095  RH  069%=      5-min Rain = 0
KBR1 201218Z 26012KT M05/M09 A2973 RMK A01 T10461094  RH  069%=      5-min Rain = 0
KBR1 201219Z 26012KT M05/M10 A2973 RMK A01 T10461095  RH  069%=      5-min Rain = 0
KBR1 201220Z 26012KT M05/M10 A2973 RMK A01 T10461095  RH  069%=      5-min Rain = 0
KBR1 201221Z 27012KT M05/M10 A2973 RMK A01 T10471095  RH  069%=      5-min Rain = 0
KBR1 201222Z 26011KT M05/M10 A2973 RMK A01 T10461095  RH  069%=      5-min Rain = 0
KBR1 201223Z 26012KT M05/M10 A2973 RMK A01 T10471096  RH  069%=      5-min Rain = 0
KBR1 201224Z 26011KT M05/M10 A2973 RMK A01 T10481096  RH  069%=      5-min Rain = 0
KBR1 201225Z 26011KT M05/M10 A2973 RMK A01 T10481096  RH  069%=      5-min Rain = 0
KBR1 201226Z 26011KT M05/M10 A2972 RMK A01 T10481096  RH  069%=      5-min Rain = 0
KBR1 201227Z 26011KT M05/M10 A2973 RMK A01 T10481096  RH  069%=      5-min Rain = 0
KBR1 201228Z 26011KT M05/M10 A2973 RMK A01 T10481096  RH  069%=      5-min Rain = 0
KBR1 201229Z 26011KT M05/M10 A2973 RMK A01 T10491096  RH  069%=      5-min Rain = 0
KBR1 201230Z 26010KT M05/M10 A2973 RMK A01 T10501097  RH  070%=      5-min Rain = 0
KBR1 201231Z 26011KT M05/M10 A2973 RMK A01 T10511097  RH  070%=      5-min Rain = 0
KBR1 201232Z 26012KT M05/M10 A2973 RMK A01 T10511098  RH  070%=      5-min Rain = 0
KBR1 201233Z 26010KT M05/M10 A2973 RMK A01 T10511097  RH  070%=      5-min Rain = 0
KBR1 201234Z 26011KT M05/M10 A2973 RMK A01 T10521097  RH  070%=      5-min Rain = 0
KBR1 201235Z 26011KT M05/M10 A2973 RMK A01 T10521097  RH  071%=      5-min Rain = 0
KBR1 201236Z 26010KT M05/M10 A2973 RMK A01 T10511097  RH  071%=      5-min Rain = 0
KBR1 201237Z 26011KT M05/M10 A2973 RMK A01 T10511097  RH  071%=      5-min Rain = 0
KBR1 201238Z 26011KT M05/M10 A2973 RMK A01 T10511097  RH  070%=      5-min Rain = 0
KBR1 201239Z 25011KT M05/M10 A2973 RMK A01 T10511097  RH  070%=      5-min Rain = 0
KBR1 201240Z 25011KT M05/M10 A2973 RMK A01 T10511096  RH  070%=      5-min Rain = 0
KBR1 201241Z 25010KT M05/M10 A2973 RMK A01 T10501096  RH  070%=      5-min Rain = 0
KBR1 201242Z 25010KT M05/M10 A2973 RMK A01 T10511096  RH  071%=      5-min Rain = 0
KBR1 201243Z 26010KT M05/M10 A2973 RMK A01 T10511096  RH  071%=      5-min Rain = 0
KBR1 201244Z 26010KT M05/M10 A2973 RMK A01 T10511096  RH  071%=      5-min Rain = 0
KBR1 201245Z 26009KT M05/M10 A2973 RMK A01 T10511096  RH  071%=      5-min Rain = 0
KBR1 201246Z 26010KT M05/M10 A2973 RMK A01 T10501095  RH  071%=      5-min Rain = 0
KBR1 201247Z 26009KT M05/M10 A2973 RMK A01 T10501095  RH  071%=      5-min Rain = 0
KBR1 201248Z 26008KT M05/M10 A2973 RMK A01 T10491095  RH  070%=      5-min Rain = 0
KBR1 201249Z 27009KT M05/M10 A2973 RMK A01 T10491095  RH  070%=      5-min Rain = 0
KBR1 201250Z 27009KT M05/M10 A2973 RMK A01 T10491095  RH  070%=      5-min Rain = 0
KBR1 201251Z 27008KT M05/M10 A2973 RMK A01 T10491095  RH  070%=      5-min Rain = 0
KBR1 201252Z 27008KT M05/M10 A2973 RMK A01 T10491095  RH  070%=      5-min Rain = 0
KBR1 201253Z 27008KT M05/M10 A2973 RMK A01 T10491095  RH  070%=      5-min Rain = 0
KBR1 201254Z 27008KT M05/M10 A2973 RMK A01 T10491096  RH  070%=      5-min Rain = 0
KBR1 201255Z 26009KT M05/M10 A2973 RMK A01 T10501096  RH  070%=      5-min Rain = 0
KBR1 201256Z 26009KT M05/M10 A2973 RMK A01 T10511097  RH  070%=      5-min Rain = 0
KBR1 201257Z 26009KT M05/M10 A2973 RMK A01 T10511097  RH  070%=      5-min Rain = 0
KBR1 201258Z 27009KT M05/M10 A2973 RMK A01 T10511097  RH  070%=      5-min Rain = 0
KBR1 201259Z 27009KT M05/M10 A2973 RMK A01 T10521098  RH  070%=      5-min Rain = 0
KBR1 201300Z 27008KT M05/M10 A2973 RMK A01 T10531098  RH  071%=      5-min Rain = 0
KBR1 201301Z 27008KT M05/M10 A2972 RMK A01 T10521098  RH  071%=      5-min Rain = 0
KBR1 201302Z 27008KT M05/M10 A2972 RMK A01 T10531098  RH  071%=      5-min Rain = 0
KBR1 201303Z 27008KT M05/M10 A2972 RMK A01 T10531098  RH  071%=      5-min Rain = 0
KBR1 201304Z 27007KT M05/M10 A2972 RMK A01 T10531098  RH  071%=      5-min Rain = 0
KBR1 201305Z 27008KT M05/M10 A2972 RMK A01 T10531098  RH  071%=      5-min Rain = 0
KBR1 201306Z 27007KT M05/M10 A2972 RMK A01 T10541099  RH  071%=      5-min Rain = 0
KBR1 201307Z 27007KT M06/M10 A2972 RMK A01 T10551099  RH  071%=      5-min Rain = 0
KBR1 201308Z 27007KT M06/M10 A2972 RMK A01 T10561099  RH  071%=      5-min Rain = 0
KBR1 201309Z 27007KT M06/M10 A2972 RMK A01 T10561099  RH  072%=      5-min Rain = 0
KBR1 201310Z 27007KT M06/M10 A2972 RMK A01 T10571100  RH  072%=      5-min Rain = 0
KBR1 201311Z 27007KT M06/M10 A2972 RMK A01 T10581100  RH  072%=      5-min Rain = 0
KBR1 201312Z 27008KT M06/M10 A2972 RMK A01 T10581100  RH  072%=      5-min Rain = 0
KBR1 201313Z 27008KT M06/M10 A2972 RMK A01 T10581099  RH  072%=      5-min Rain = 0
KBR1 201314Z 27008KT M06/M10 A2972 RMK A01 T10581100  RH  072%=      5-min Rain = 0
KBR1 201315Z 27008KT M06/M10 A2972 RMK A01 T10581099  RH  072%=      5-min Rain = 0
KBR1 201316Z 27008KT M06/M10 A2972 RMK A01 T10581100  RH  072%=      5-min Rain = 0
KBR1 201317Z 27008KT M06/M10 A2972 RMK A01 T10581099  RH  072%=      5-min Rain = 0
KBR1 201318Z 27008KT M06/M10 A2972 RMK A01 T10571099  RH  072%=      5-min Rain = 0
KBR1 201319Z 27008KT M06/M10 A2972 RMK A01 T10571099  RH  072%=      5-min Rain = 0
KBR1 201320Z 28008KT M06/M10 A2972 RMK A01 T10571099  RH  072%=      5-min Rain = 0
KBR1 201321Z 28009KT M06/M10 A2972 RMK A01 T10561098  RH  072%=      5-min Rain = 0
KBR1 201322Z 28009KT M06/M10 A2972 RMK A01 T10551098  RH  072%=      5-min Rain = 0
KBR1 201323Z 28008KT M06/M10 A2972 RMK A01 T10561098  RH  072%=      5-min Rain = 0
KBR1 201324Z 28008KT M06/M10 A2972 RMK A01 T10561099  RH  072%=      5-min Rain = 0
KBR1 201325Z 28008KT M06/M10 A2972 RMK A01 T10571099  RH  072%=      5-min Rain = 0
KBR1 201326Z 29008KT M06/M10 A2972 RMK A01 T10581100  RH  072%=      5-min Rain = 0
KBR1 201327Z 29008KT M06/M10 A2973 RMK A01 T10581099  RH  073%=      5-min Rain = 0
KBR1 201328Z 32006KT M06/M10 A2973 RMK A01 T10581099  RH  073%=      5-min Rain = 0
KBR1 201329Z 32007KT M06/M10 A2973 RMK A01 T10621103  RH  072%=      5-min Rain = 0
KBR1 201330Z 33008KT M07/M11 A2973 RMK A01 T10661107  RH  073%=      5-min Rain = 0
KBR1 201331Z 32008KT M07/M11 A2973 RMK A01 T10671106  RH  074%=      5-min Rain = 0
KBR1 201332Z 32007KT M07/M11 A2973 RMK A01 T10681105  RH  075%=      5-min Rain = 0
KBR1 201333Z 32007KT M07/M11 A2973 RMK A01 T10681105  RH  075%=      5-min Rain = 0
KBR1 201334Z 31007KT M07/M10 A2973 RMK A01 T10681104  RH  075%=      5-min Rain = 0
KBR1 201335Z 31007KT M07/M10 A2973 RMK A01 T10681103  RH  076%=      5-min Rain = 0
KBR1 201336Z 31007KT M07/M10 A2973 RMK A01 T10661102  RH  076%=      5-min Rain = 0
KBR1 201337Z 30007KT M07/M10 A2973 RMK A01 T10651102  RH  075%=      5-min Rain = 0
KBR1 201338Z 30007KT M07/M10 A2974 RMK A01 T10651102  RH  075%=      5-min Rain = 0
KBR1 201339Z 30006KT M07/M10 A2974 RMK A01 T10651102  RH  075%=      5-min Rain = 0
KBR1 201340Z 30006KT M07/M10 A2974 RMK A01 T10651102  RH  075%=      5-min Rain = 0
KBR1 201341Z 30006KT M07/M10 A2974 RMK A01 T10651103  RH  075%=      5-min Rain = 0
KBR1 201342Z 29006KT M07/M10 A2974 RMK A01 T10651103  RH  075%=      5-min Rain = 0
KBR1 201343Z 29006KT M07/M10 A2974 RMK A01 T10651103  RH  074%=      5-min Rain = 0
KBR1 201344Z 29005KT M07/M10 A2974 RMK A01 T10651103  RH  074%=      5-min Rain = 0
KBR1 201345Z 28005KT M07/M10 A2974 RMK A01 T10651103  RH  074%=      5-min Rain = 0
KBR1 201346Z 27005KT M06/M10 A2974 RMK A01 T10641103  RH  074%=      5-min Rain = 0
KBR1 201347Z 27004KT M07/M10 A2974 RMK A01 T10651104  RH  074%=      5-min Rain = 0
KBR1 201348Z 27005KT M07/M10 A2974 RMK A01 T10651104  RH  074%=      5-min Rain = 0
KBR1 201349Z 26005KT M07/M10 A2974 RMK A01 T10651104  RH  074%=      5-min Rain = 0
KBR1 201350Z 27005KT M06/M10 A2974 RMK A01 T10641103  RH  074%=      5-min Rain = 0
KBR1 201351Z 26004KT M06/M10 A2974 RMK A01 T10641103  RH  074%=      5-min Rain = 0
KBR1 201352Z 25004KT M06/M10 A2974 RMK A01 T10641104  RH  074%=      5-min Rain = 0
KBR1 201353Z 24003KT M06/M10 A2974 RMK A01 T10641104  RH  074%=      5-min Rain = 0
KBR1 201354Z 24003KT M07/M10 A2974 RMK A01 T10651104  RH  073%=      5-min Rain = 0
KBR1 201355Z 23003KT M06/M10 A2974 RMK A01 T10641104  RH  073%=      5-min Rain = 0
KBR1 201356Z 23003KT M06/M10 A2974 RMK A01 T10641104  RH  073%=      5-min Rain = 0
KBR1 201357Z 22003KT M06/M11 A2974 RMK A01 T10641105  RH  073%=      5-min Rain = 0
KBR1 201358Z 22003KT M07/M11 A2975 RMK A01 T10651105  RH  073%=      5-min Rain = 0
KBR1 201359Z 23004KT M06/M11 A2975 RMK A01 T10641105  RH  073%=      5-min Rain = 0
KBR1 201400Z 23004KT M06/M11 A2975 RMK A01 T10641105  RH  073%=      5-min Rain = 0
KBR1 201401Z 24004KT M06/M10 A2975 RMK A01 T10631104  RH  073%=      5-min Rain = 0
KBR1 201402Z 24005KT M06/M10 A2975 RMK A01 T10631103  RH  073%=      5-min Rain = 0
KBR1 201403Z 23005KT M06/M10 A2975 RMK A01 T10611102  RH  073%=      5-min Rain = 0
KBR1 201404Z 22005KT M06/M10 A2975 RMK A01 T10601102  RH  072%=      5-min Rain = 0
KBR1 201405Z 23006KT M06/M10 A2975 RMK A01 T10611103  RH  072%=      5-min Rain = 0
KBR1 201406Z 23006KT M06/M10 A2975 RMK A01 T10621103  RH  073%=      5-min Rain = 0
KBR1 201407Z 24006KT M06/M10 A2975 RMK A01 T10611101  RH  073%=      5-min Rain = 0
KBR1 201408Z 24006KT M06/M10 A2975 RMK A01 T10601100  RH  073%=      5-min Rain = 0
KBR1 201409Z 25006KT M06/M10 A2975 RMK A01 T10581098  RH  073%=      5-min Rain = 0
KBR1 201410Z 25006KT M06/M10 A2975 RMK A01 T10571098  RH  073%=      5-min Rain = 0
KBR1 201411Z 26006KT M06/M10 A2975 RMK A01 T10561097  RH  072%=      5-min Rain = 0
KBR1 201412Z 26005KT M05/M10 A2975 RMK A01 T10541096  RH  072%=      5-min Rain = 0
KBR1 201413Z 26005KT M05/M10 A2975 RMK A01 T10531096  RH  072%=      5-min Rain = 0
KBR1 201414Z 26005KT M05/M10 A2975 RMK A01 T10531096  RH  072%=      5-min Rain = 0
KBR1 201415Z 26005KT M05/M10 A2975 RMK A01 T10521095  RH  072%=      5-min Rain = 0
KBR1 201416Z 26006KT M05/M10 A2975 RMK A01 T10521095  RH  072%=      5-min Rain = 0
KBR1 201417Z 26006KT M05/M09 A2975 RMK A01 T10511094  RH  072%=      5-min Rain = 0
KBR1 201418Z 25005KT M05/M09 A2975 RMK A01 T10511093  RH  072%=      5-min Rain = 0
KBR1 201419Z 25005KT M05/M09 A2975 RMK A01 T10501093  RH  072%=      5-min Rain = 0
KBR1 201420Z 25005KT M05/M09 A2975 RMK A01 T10491091  RH  072%=      5-min Rain = 0
KBR1 201421Z 26005KT M05/M09 A2975 RMK A01 T10481091  RH  072%=      5-min Rain = 0
KBR1 201422Z 26006KT M05/M09 A2975 RMK A01 T10481090  RH  072%=      5-min Rain = 0
KBR1 201423Z 26006KT M05/M09 A2976 RMK A01 T10471089  RH  072%=      5-min Rain = 0
KBR1 201424Z 27006KT M05/M09 A2976 RMK A01 T10461088  RH  072%=      5-min Rain = 0
KBR1 201425Z 27006KT M05/M09 A2976 RMK A01 T10451088  RH  072%=      5-min Rain = 0
KBR1 201426Z 27006KT M04/M09 A2976 RMK A01 T10441087  RH  071%=      5-min Rain = 0
KBR1 201427Z 27006KT M04/M09 A2976 RMK A01 T10421087  RH  071%=      5-min Rain = 0
KBR1 201428Z 27006KT M04/M09 A2976 RMK A01 T10401086  RH  071%=      5-min Rain = 0
KBR1 201429Z 26006KT M04/M09 A2976 RMK A01 T10391086  RH  070%=      5-min Rain = 0
KBR1 201430Z 26007KT M04/M09 A2976 RMK A01 T10381085  RH  070%=      5-min Rain = 0
KBR1 201431Z 26008KT M04/M09 A2976 RMK A01 T10371085  RH  069%=      5-min Rain = 0
KBR1 201432Z 25007KT M04/M09 A2976 RMK A01 T10361085  RH  069%=      5-min Rain = 0
KBR1 201433Z 25007KT M04/M09 A2976 RMK A01 T10351085  RH  068%=      5-min Rain = 0
KBR1 201434Z 24007KT M04/M08 A2976 RMK A01 T10351084  RH  069%=      5-min Rain = 0
KBR1 201435Z 24007KT M03/M08 A2976 RMK A01 T10341083  RH  069%=      5-min Rain = 0
KBR1 201436Z 23007KT M03/M08 A2976 RMK A01 T10331083  RH  068%=      5-min Rain = 0
KBR1 201437Z 22006KT M03/M08 A2977 RMK A01 T10331082  RH  069%=      5-min Rain = 0
KBR1 201438Z 22007KT M03/M08 A2977 RMK A01 T10331082  RH  069%=      5-min Rain = 0
KBR1 201439Z 22005KT M03/M08 A2977 RMK A01 T10331082  RH  069%=      5-min Rain = 0
KBR1 201440Z 21006KT M03/M08 A2977 RMK A01 T10331081  RH  070%=      5-min Rain = 0
KBR1 201441Z 21005KT M03/M08 A2977 RMK A01 T10331082  RH  069%=      5-min Rain = 0
KBR1 201442Z 22005KT M03/M08 A2977 RMK A01 T10331081  RH  070%=      5-min Rain = 0
KBR1 201443Z 22005KT M03/M08 A2977 RMK A01 T10331083  RH  068%=      5-min Rain = 0
KBR1 201444Z 23005KT M03/M08 A2977 RMK A01 T10321082  RH  068%=      5-min Rain = 0
KBR1 201445Z 23005KT M03/M08 A2977 RMK A01 T10311082  RH  068%=      5-min Rain = 0
KBR1 201446Z 23006KT M03/M08 A2977 RMK A01 T10301081  RH  068%=      5-min Rain = 0
KBR1 201447Z 24006KT M03/M08 A2977 RMK A01 T10291081  RH  067%=      5-min Rain = 0
KBR1 201448Z 23007KT M03/M08 A2977 RMK A01 T10291082  RH  067%=      5-min Rain = 0
KBR1 201449Z 24006KT M03/M08 A2977 RMK A01 T10291082  RH  067%=      5-min Rain = 0
KBR1 201450Z 23006KT M03/M08 A2977 RMK A01 T10281081  RH  067%=      5-min Rain = 0
KBR1 201451Z 22006KT M03/M08 A2977 RMK A01 T10281081  RH  067%=      5-min Rain = 0
KBR1 201452Z 22005KT M03/M08 A2977 RMK A01 T10281081  RH  067%=      5-min Rain = 0
KBR1 201453Z 22006KT M03/M08 A2977 RMK A01 T10281082  RH  066%=      5-min Rain = 0
KBR1 201454Z 23006KT M03/M08 A2977 RMK A01 T10271081  RH  067%=      5-min Rain = 0
KBR1 201455Z 23006KT M03/M08 A2977 RMK A01 T10271079  RH  067%=      5-min Rain = 0
KBR1 201456Z 24006KT M03/M08 A2977 RMK A01 T10261079  RH  067%=      5-min Rain = 0
KBR1 201457Z 24006KT M03/M08 A2977 RMK A01 T10261079  RH  067%=      5-min Rain = 0
KBR1 201458Z 23005KT M03/M08 A2977 RMK A01 T10251079  RH  066%=      5-min Rain = 0
KBR1 201459Z 23006KT M03/M08 A2977 RMK A01 T10251079  RH  066%=      5-min Rain = 0
KBR1 201500Z 23006KT M02/M08 A2977 RMK A01 T10241078  RH  066%=      5-min Rain = 0
KBR1 201501Z 22006KT M02/M08 A2977 RMK A01 T10231075  RH  067%=      5-min Rain = 0
KBR1 201502Z 22006KT M02/M08 A2978 RMK A01 T10221077  RH  066%=      5-min Rain = 0
KBR1 201503Z 22006KT M02/M08 A2978 RMK A01 T10221076  RH  067%=      5-min Rain = 0
KBR1 201504Z 21006KT M02/M07 A2978 RMK A01 T10211072  RH  068%=      5-min Rain = 0
KBR1 201505Z 22007KT M02/M07 A2978 RMK A01 T10191070  RH  068%=      5-min Rain = 0
KBR1 201506Z 22008KT M02/M07 A2978 RMK A01 T10181072  RH  067%=      5-min Rain = 0
KBR1 201507Z 22009KT M02/M07 A2978 RMK A01 T10161071  RH  066%=      5-min Rain = 0
KBR1 201508Z 23010KT M02/M07 A2979 RMK A01 T10151072  RH  065%=      5-min Rain = 0
KBR1 201509Z 22010KT M02/M07 A2979 RMK A01 T10151074  RH  064%=      5-min Rain = 0
KBR1 201510Z 22009KT M01/M07 A2979 RMK A01 T10141071  RH  065%=      5-min Rain = 0
KBR1 201511Z 22009KT M01/M07 A2979 RMK A01 T10131072  RH  064%=      5-min Rain = 0
KBR1 201512Z 23009KT M01/M07 A2979 RMK A01 T10131073  RH  063%=      5-min Rain = 0
KBR1 201513Z 22009KT M01/M07 A2979 RMK A01 T10131074  RH  063%=      5-min Rain = 0
KBR1 201514Z 22010KT M01/M07 A2979 RMK A01 T10121072  RH  064%=      5-min Rain = 0
KBR1 201515Z 21010KT M01/M07 A2978 RMK A01 T10121074  RH  063%=      5-min Rain = 0
KBR1 201516Z 22011KT M01/M08 A2978 RMK A01 T10131076  RH  062%=      5-min Rain = 0
KBR1 201517Z 22009KT M01/M08 A2979 RMK A01 T10141077  RH  062%=      5-min Rain = 0
KBR1 201518Z 22009KT M01/M08 A2979 RMK A01 T10141076  RH  062%=      5-min Rain = 0
KBR1 201519Z 23009KT M01/M08 A2979 RMK A01 T10131079  RH  061%=      5-min Rain = 0
KBR1 201520Z 22008KT M01/M08 A2979 RMK A01 T10121077  RH  062%=      5-min Rain = 0
KBR1 201521Z 23010KT M01/M07 A2979 RMK A01 T10111073  RH  062%=      5-min Rain = 0
KBR1 201522Z 24011KT M01/M08 A2979 RMK A01 T10101077  RH  060%=      5-min Rain = 0
KBR1 201523Z 24012KT M01/M08 A2979 RMK A01 T10101079  RH  060%=      5-min Rain = 0
KBR1 201524Z 24008KT M01/M08 A2979 RMK A01 T10101080  RH  059%=      5-min Rain = 0
KBR1 201525Z 24008KT M01/M08 A2979 RMK A01 T10101078  RH  060%=      5-min Rain = 0
KBR1 201526Z 23006KT M01/M08 A2979 RMK A01 T10081077  RH  060%=      5-min Rain = 0
KBR1 201527Z 23010KT M01/M08 A2979 RMK A01 T10061075  RH  060%=      5-min Rain = 0
KBR1 201528Z 24011KT M01/M08 A2979 RMK A01 T10071081  RH  057%=      5-min Rain = 0
KBR1 201529Z 24009KT M01/M08 A2979 RMK A01 T10081080  RH  058%=      5-min Rain = 0
KBR1 201530Z 24010KT M01/M08 A2979 RMK A01 T10071079  RH  058%=      5-min Rain = 0
KBR1 201531Z 23012KT M01/M08 A2979 RMK A01 T10061078  RH  058%=      5-min Rain = 0
KBR1 201532Z 24010KT M01/M08 A2979 RMK A01 T10051079  RH  057%=      5-min Rain = 0
KBR1 201533Z 24011KT M00/M08 A2979 RMK A01 T10041081  RH  056%=      5-min Rain = 0
KBR1 201534Z 24011KT M00/M08 A2979 RMK A01 T10031080  RH  056%=      5-min Rain = 0
KBR1 201535Z 24011G16KT M00/M08 A2979 RMK A01 T10021080  RH  056%=      5-min Rain = 0
KBR1 201536Z 24013KT M00/M08 A2979 RMK A01 T10021083  RH  054%=      5-min Rain = 0
KBR1 201537Z 25011KT M00/M09 A2979 RMK A01 T10031087  RH  053%=      5-min Rain = 0
KBR1 201538Z 25012KT M00/M09 A2979 RMK A01 T10031085  RH  054%=      5-min Rain = 0
KBR1 201539Z 24011KT M00/M08 A2979 RMK A01 T10021084  RH  054%=      5-min Rain = 0
KBR1 201540Z 25011KT 00/08 A2979 RMK A01 T00000-83  RH  053%=      5-min Rain = 0
KBR1 201541Z 25011KT 00/M08 A2979 RMK A01 T00011082  RH  053%=      5-min Rain = 0
KBR1 201542Z 24014KT 00/M08 A2979 RMK A01 T00021083  RH  053%=      5-min Rain = 0
KBR1 201543Z 25014KT 00/M09 A2979 RMK A01 T00021085  RH  052%=      5-min Rain = 0
KBR1 201544Z 26014KT 00/M09 A2979 RMK A01 T00021087  RH  051%=      5-min Rain = 0
KBR1 201545Z 26012KT 00/M09 A2979 RMK A01 T00011086  RH  052%=      5-min Rain = 0
KBR1 201546Z 26012KT 00/M08 A2979 RMK A01 T00021083  RH  053%=      5-min Rain = 0
KBR1 201547Z 26011KT 00/M09 A2979 RMK A01 T00031085  RH  052%=      5-min Rain = 0
KBR1 201548Z 25012KT 00/M08 A2979 RMK A01 T00041083  RH  052%=      5-min Rain = 0
KBR1 201549Z 25011KT 01/M08 A2979 RMK A01 T00071083  RH  051%=      5-min Rain = 0
KBR1 201550Z 25010KT 01/M08 A2979 RMK A01 T00081084  RH  050%=      5-min Rain = 0
KBR1 201551Z 25015G20KT 01/M09 A2979 RMK A01 T00081085  RH  050%=      5-min Rain = 0
KBR1 201552Z 26016KT 01/M09 A2979 RMK A01 T00091089  RH  048%=      5-min Rain = 0
KBR1 201553Z 26014KT 01/M09 A2979 RMK A01 T00081090  RH  048%=      5-min Rain = 0
KBR1 201554Z 26013KT 01/M09 A2979 RMK A01 T00091089  RH  048%=      5-min Rain = 0
KBR1 201555Z 25010KT 01/M09 A2979 RMK A01 T00121089  RH  047%=      5-min Rain = 0
KBR1 201556Z 24014KT 02/M09 A2979 RMK A01 T00151086  RH  047%=      5-min Rain = 0
KBR1 201557Z 24013KT 02/M09 A2979 RMK A01 T00151090  RH  046%=      5-min Rain = 0
KBR1 201558Z 24012KT 01/M09 A2979 RMK A01 T00121091  RH  046%=      5-min Rain = 0
KBR1 201559Z 24013KT 01/M09 A2979 RMK A01 T00131091  RH  046%=      5-min Rain = 0
KBR1 201600Z 25012KT 01/M09 A2979 RMK A01 T00141093  RH  045%=      5-min Rain = 0
KBR1 201601Z 25014KT 02/M09 A2979 RMK A01 T00151094  RH  044%=      5-min Rain = 0
KBR1 201602Z 25014KT 02/M10 A2979 RMK A01 T00151096  RH  043%=      5-min Rain = 0
KBR1 201603Z 25014KT 02/M10 A2979 RMK A01 T00161096  RH  043%=      5-min Rain = 0
KBR1 201604Z 25013KT 02/M10 A2979 RMK A01 T00171097  RH  043%=      5-min Rain = 0
KBR1 201605Z 25013KT 02/M10 A2979 RMK A01 T00171099  RH  042%=      5-min Rain = 0
KBR1 201606Z 24014KT 02/M10 A2979 RMK A01 T00161099  RH  042%=      5-min Rain = 0
KBR1 201607Z 24015KT 02/M10 A2979 RMK A01 T00161100  RH  042%=      5-min Rain = 0
KBR1 201608Z 25015KT 02/M10 A2979 RMK A01 T00161102  RH  041%=      5-min Rain = 0
KBR1 201609Z 24016KT 02/M10 A2979 RMK A01 T00161103  RH  041%=      5-min Rain = 0
KBR1 201610Z 25012KT 02/M10 A2979 RMK A01 T00151103  RH  041%=      5-min Rain = 0
KBR1 201611Z 25012KT 02/M10 A2979 RMK A01 T00161103  RH  041%=      5-min Rain = 0
KBR1 201612Z 24014KT 02/M10 A2979 RMK A01 T00181101  RH  041%=      5-min Rain = 0
KBR1 201613Z 24012KT 02/M10 A2979 RMK A01 T00191102  RH  040%=      5-min Rain = 0
KBR1 201614Z 24010KT 02/M10 A2979 RMK A01 T00201100  RH  041%=      5-min Rain = 0
KBR1 201615Z 25010KT 02/M10 A2979 RMK A01 T00221098  RH  041%=      5-min Rain = 0
KBR1 201616Z 24014KT 02/M10 A2979 RMK A01 T00241100  RH  039%=      5-min Rain = 0
KBR1 201617Z 24013KT 02/M11 A2979 RMK A01 T00221106  RH  038%=      5-min Rain = 0
KBR1 201618Z 25014KT 02/M11 A2979 RMK A01 T00211108  RH  038%=      5-min Rain = 0
KBR1 201619Z 24014KT 02/M11 A2979 RMK A01 T00221108  RH  037%=      5-min Rain = 0
KBR1 201620Z 24013KT 02/M11 A2979 RMK A01 T00241107  RH  037%=      5-min Rain = 0
KBR1 201621Z 24011KT 02/M11 A2979 RMK A01 T00241107  RH  037%=      5-min Rain = 0
KBR1 201622Z 24012KT 03/M11 A2979 RMK A01 T00251105  RH  038%=      5-min Rain = 0
KBR1 201623Z 23013KT 03/M10 A2979 RMK A01 T00251104  RH  038%=      5-min Rain = 0
KBR1 201624Z 23015KT 03/M11 A2979 RMK A01 T00251105  RH  038%=      5-min Rain = 0
KBR1 201625Z 24012KT 03/M11 A2979 RMK A01 T00261107  RH  037%=      5-min Rain = 0
KBR1 201626Z 25013KT 03/M11 A2979 RMK A01 T00261112  RH  035%=      5-min Rain = 0
KBR1 201627Z 24014KT 03/M11 A2979 RMK A01 T00281110  RH  036%=      5-min Rain = 0
KBR1 201628Z 24013KT 03/M11 A2979 RMK A01 T00281110  RH  035%=      5-min Rain = 0
KBR1 201629Z 25013KT 03/M11 A2979 RMK A01 T00261112  RH  035%=      5-min Rain = 0
KBR1 201630Z 24010KT 03/M11 A2979 RMK A01 T00271109  RH  036%=      5-min Rain = 0
KBR1 201631Z 25012KT 03/M11 A2979 RMK A01 T00301105  RH  036%=      5-min Rain = 0
KBR1 201632Z 25011KT 03/M11 A2979 RMK A01 T00331105  RH  036%=      5-min Rain = 0
KBR1 201633Z 24013KT 04/M11 A2979 RMK A01 T00361105  RH  035%=      5-min Rain = 0
KBR1 201634Z 25015KT 03/M11 A2979 RMK A01 T00341111  RH  034%=      5-min Rain = 0
KBR1 201635Z 25011KT 03/M12 A2979 RMK A01 T00311117  RH  033%=      5-min Rain = 0
KBR1 201636Z 25015KT 03/M12 A2979 RMK A01 T00301115  RH  034%=      5-min Rain = 0
KBR1 201637Z 26015KT 03/M12 A2979 RMK A01 T00301117  RH  033%=      5-min Rain = 0
KBR1 201638Z 26014KT 03/M12 A2979 RMK A01 T00311116  RH  033%=      5-min Rain = 0
KBR1 201639Z 25015KT 03/M12 A2979 RMK A01 T00331119  RH  032%=      5-min Rain = 0
KBR1 201640Z 25011KT 03/M12 A2979 RMK A01 T00301124  RH  031%=      5-min Rain = 0
KBR1 201641Z 24012KT 03/M12 A2979 RMK A01 T00291123  RH  032%=      5-min Rain = 0
KBR1 201642Z 24013KT 03/M12 A2979 RMK A01 T00301119  RH  033%=      5-min Rain = 0
KBR1 201643Z 24012KT 03/M11 A2979 RMK A01 T00321114  RH  033%=      5-min Rain = 0
KBR1 201644Z 25012KT 04/M11 A2979 RMK A01 T00371114  RH  032%=      5-min Rain = 0
KBR1 201645Z 23015KT 04/M12 A2979 RMK A01 T00351123  RH  030%=      5-min Rain = 0
KBR1 201646Z 23016KT 03/M12 A2979 RMK A01 T00331122  RH  031%=      5-min Rain = 0
KBR1 201647Z 24013G18KT 03/M12 A2979 RMK A01 T00331121  RH  031%=      5-min Rain = 0
KBR1 201648Z 25014G19KT 03/M12 A2979 RMK A01 T00331121  RH  031%=      5-min Rain = 0
KBR1 201649Z 24013KT 03/M12 A2979 RMK A01 T00331118  RH  032%=      5-min Rain = 0
KBR1 201650Z 24013KT 04/M12 A2979 RMK A01 T00351118  RH  032%=      5-min Rain = 0
KBR1 201651Z 23012KT 03/M12 A2979 RMK A01 T00321121  RH  031%=      5-min Rain = 0
KBR1 201652Z 23014KT 03/M12 A2979 RMK A01 T00331118  RH  032%=      5-min Rain = 0
KBR1 201653Z 24014G19KT 04/M12 A2979 RMK A01 T00371115  RH  032%=      5-min Rain = 0
KBR1 201654Z 26017KT 04/M12 A2979 RMK A01 T00381124  RH  030%=      5-min Rain = 0
KBR1 201655Z 26014KT 04/M13 A2979 RMK A01 T00361131  RH  028%=      5-min Rain = 0
KBR1 201656Z 26012KT 04/M13 A2979 RMK A01 T00351130  RH  029%=      5-min Rain = 0
KBR1 201657Z 26010KT 03/M13 A2978 RMK A01 T00341129  RH  029%=      5-min Rain = 0
KBR1 201658Z 25012KT 04/M12 A2978 RMK A01 T00351124  RH  030%=      5-min Rain = 0
KBR1 201659Z 27010KT 04/M12 A2978 RMK A01 T00381123  RH  030%=      5-min Rain = 0
KBR1 201700Z 27010KT 04/M12 A2978 RMK A01 T00381124  RH  030%=      5-min Rain = 0
KBR1 201701Z 25011KT 04/M12 A2978 RMK A01 T00401121  RH  030%=      5-min Rain = 0
KBR1 201702Z 24012KT 04/M12 A2978 RMK A01 T00421120  RH  030%=      5-min Rain = 0
KBR1 201703Z 25015KT 04/M12 A2978 RMK A01 T00421122  RH  029%=      5-min Rain = 0
KBR1 201704Z 25012KT 04/M13 A2979 RMK A01 T00421125  RH  029%=      5-min Rain = 0
KBR1 201705Z 25012KT 04/M13 A2979 RMK A01 T00421128  RH  028%=      5-min Rain = 0
KBR1 201706Z 26009KT 04/M13 A2979 RMK A01 T00391133  RH  027%=      5-min Rain = 0
KBR1 201707Z 25009KT 04/M13 A2979 RMK A01 T00371131  RH  028%=      5-min Rain = 0
KBR1 201708Z 25015KT 04/M13 A2979 RMK A01 T00381128  RH  028%=      5-min Rain = 0
KBR1 201709Z 26013KT 04/M13 A2979 RMK A01 T00391130  RH  028%=      5-min Rain = 0
KBR1 201710Z 26012KT 04/M13 A2978 RMK A01 T00391129  RH  028%=      5-min Rain = 0
KBR1 201711Z 26010KT 04/M13 A2978 RMK A01 T00391126  RH  029%=      5-min Rain = 0
KBR1 201712Z 25011G16KT 04/M12 A2978 RMK A01 T00401124  RH  029%=      5-min Rain = 0
KBR1 201713Z 23011KT 04/M13 A2978 RMK A01 T00401128  RH  028%=      5-min Rain = 0
KBR1 201714Z 24012KT 04/M13 A2978 RMK A01 T00401127  RH  028%=      5-min Rain = 0
KBR1 201715Z 25011KT 04/M13 A2979 RMK A01 T00421128  RH  028%=      5-min Rain = 0
KBR1 201716Z 25008KT 04/M13 A2978 RMK A01 T00411129  RH  028%=      5-min Rain = 0
KBR1 201717Z 24011KT 04/M13 A2978 RMK A01 T00421131  RH  027%=      5-min Rain = 0
KBR1 201718Z 23011KT 04/M13 A2978 RMK A01 T00411133  RH  027%=      5-min Rain = 0
KBR1 201719Z 25008KT 04/M13 A2978 RMK A01 T00401133  RH  027%=      5-min Rain = 0
KBR1 201720Z 24011KT 04/M13 A2978 RMK A01 T00421132  RH  027%=      5-min Rain = 0
KBR1 201721Z 22011KT 04/M14 A2978 RMK A01 T00421135  RH  026%=      5-min Rain = 0
KBR1 201722Z 22011KT 04/M14 A2978 RMK A01 T00421136  RH  026%=      5-min Rain = 0
KBR1 201723Z 24015KT 04/M13 A2978 RMK A01 T00441130  RH  027%=      5-min Rain = 0
KBR1 201724Z 24012KT 04/M13 A2978 RMK A01 T00441134  RH  026%=      5-min Rain = 0
KBR1 201725Z 24009KT 04/M14 A2978 RMK A01 T00421135  RH  026%=      5-min Rain = 0
KBR1 201726Z 23011G17KT 04/M13 A2978 RMK A01 T00431130  RH  027%=      5-min Rain = 0
KBR1 201727Z 24015KT 04/M13 A2979 RMK A01 T00441130  RH  027%=      5-min Rain = 0
KBR1 201728Z 25009KT 04/M13 A2979 RMK A01 T00431134  RH  026%=      5-min Rain = 0
KBR1 201729Z 25010KT 04/M13 A2979 RMK A01 T00421134  RH  026%=      5-min Rain = 0
KBR1 201730Z 25013KT 04/M13 A2979 RMK A01 T00441133  RH  026%=      5-min Rain = 0
KBR1 201731Z 24011KT 05/M13 A2979 RMK A01 T00451134  RH  026%=      5-min Rain = 0
KBR1 201732Z 25009KT 04/M13 A2978 RMK A01 T00431134  RH  026%=      5-min Rain = 0
KBR1 201733Z 27011KT 04/M13 A2978 RMK A01 T00441132  RH  027%=      5-min Rain = 0
KBR1 201734Z 24008KT 04/M13 A2978 RMK A01 T00431132  RH  027%=      5-min Rain = 0
KBR1 201735Z 24011KT 04/M13 A2978 RMK A01 T00441129  RH  027%=      5-min Rain = 0
KBR1 201736Z 24011KT 05/M13 A2978 RMK A01 T00451131  RH  027%=      5-min Rain = 0
KBR1 201737Z 23011KT 04/M13 A2978 RMK A01 T00431134  RH  026%=      5-min Rain = 0
KBR1 201738Z 24015KT 04/M13 A2978 RMK A01 T00431131  RH  027%=      5-min Rain = 0
KBR1 201739Z 24009KT 05/M13 A2978 RMK A01 T00461131  RH  026%=      5-min Rain = 0
KBR1 201740Z 23013KT 05/M13 A2978 RMK A01 T00481131  RH  026%=      5-min Rain = 0
KBR1 201741Z 22012KT 05/M13 A2978 RMK A01 T00481133  RH  026%=      5-min Rain = 0
KBR1 201742Z 22011KT 05/M14 A2978 RMK A01 T00461138  RH  025%=      5-min Rain = 0
KBR1 201743Z 24014KT 05/M14 A2978 RMK A01 T00451136  RH  025%=      5-min Rain = 0
KBR1 201744Z 24011G17KT 05/M13 A2978 RMK A01 T00461134  RH  026%=      5-min Rain = 0
KBR1 201745Z 24011G16KT 04/M14 A2978 RMK A01 T00441135  RH  026%=      5-min Rain = 0
KBR1 201746Z 24011KT 05/M13 A2978 RMK A01 T00461134  RH  026%=      5-min Rain = 0
KBR1 201747Z 22012KT 05/M13 A2978 RMK A01 T00471134  RH  026%=      5-min Rain = 0
KBR1 201748Z 22010KT 05/M14 A2978 RMK A01 T00471135  RH  025%=      5-min Rain = 0
KBR1 201749Z 23012KT 05/M14 A2978 RMK A01 T00471135  RH  025%=      5-min Rain = 0
KBR1 201750Z 24015KT 05/M14 A2978 RMK A01 T00471135  RH  025%=      5-min Rain = 0
KBR1 201751Z 23012G17KT 05/M14 A2978 RMK A01 T00461137  RH  025%=      5-min Rain = 0
KBR1 201752Z 25009KT 04/M14 A2978 RMK A01 T00441137  RH  025%=      5-min Rain = 0
KBR1 201753Z 22012G17KT 05/M13 A2978 RMK A01 T00471134  RH  026%=      5-min Rain = 0
KBR1 201754Z 22013KT 05/M13 A2978 RMK A01 T00521130  RH  025%=      5-min Rain = 0
KBR1 201755Z 22011KT 05/M14 A2978 RMK A01 T00511135  RH  025%=      5-min Rain = 0
KBR1 201756Z 22007G12KT 05/M14 A2978 RMK A01 T00491137  RH  025%=      5-min Rain = 0
KBR1 201757Z 20009KT 05/M14 A2978 RMK A01 T00491135  RH  025%=      5-min Rain = 0
KBR1 201758Z 22010KT 05/M13 A2978 RMK A01 T00491134  RH  025%=      5-min Rain = 0
KBR1 201759Z 23014KT 05/M13 A2978 RMK A01 T00511129  RH  026%=      5-min Rain = 0
KBR1 201800Z 24011KT 05/M13 A2978 RMK A01 T00521132  RH  025%=      5-min Rain = 0
KBR1 201801Z 24010KT 05/M13 A2978 RMK A01 T00531131  RH  025%=      5-min Rain = 0
KBR1 201802Z 25010KT 05/M13 A2978 RMK A01 T00541133  RH  025%=      5-min Rain = 0
KBR1 201803Z 25008KT 05/M13 A2978 RMK A01 T00541132  RH  025%=      5-min Rain = 0
KBR1 201804Z 25010KT 06/M13 A2978 RMK A01 T00581127  RH  025%=      5-min Rain = 0
KBR1 201805Z 24009G14KT 06/M13 A2978 RMK A01 T00601130  RH  024%=      5-min Rain = 0
KBR1 201806Z 25009KT 06/M13 A2978 RMK A01 T00591130  RH  024%=      5-min Rain = 0
KBR1 201807Z 24007KT 06/M13 A2978 RMK A01 T00571133  RH  024%=      5-min Rain = 0
KBR1 201808Z 26012KT 06/M13 A2978 RMK A01 T00561131  RH  024%=      5-min Rain = 0
KBR1 201809Z 25012KT 06/M13 A2978 RMK A01 T00571130  RH  024%=      5-min Rain = 0
KBR1 201810Z 25012KT 06/M13 A2978 RMK A01 T00591130  RH  024%=      5-min Rain = 0
KBR1 201811Z 24010KT 06/M13 A2978 RMK A01 T00551134  RH  024%=      5-min Rain = 0
KBR1 201812Z 23008G13KT 05/M13 A2978 RMK A01 T00541134  RH  024%=      5-min Rain = 0
KBR1 201813Z 22009KT 05/M13 A2977 RMK A01 T00531134  RH  024%=      5-min Rain = 0
KBR1 201814Z 21010KT 06/M13 A2977 RMK A01 T00561131  RH  024%=      5-min Rain = 0
KBR1 201815Z 25010KT 06/M13 A2977 RMK A01 T00581134  RH  024%=      5-min Rain = 0
KBR1 201816Z 25013KT 06/M14 A2977 RMK A01 T00581135  RH  023%=      5-min Rain = 0
KBR1 201817Z 25013KT 06/M14 A2977 RMK A01 T00591135  RH  023%=      5-min Rain = 0
KBR1 201818Z 23015KT 06/M14 A2977 RMK A01 T00561137  RH  023%=      5-min Rain = 0
KBR1 201819Z 23011KT 06/M14 A2977 RMK A01 T00551137  RH  024%=      5-min Rain = 0
KBR1 201820Z 25011KT 05/M14 A2977 RMK A01 T00541137  RH  024%=      5-min Rain = 0
KBR1 201821Z 24009KT 05/M14 A2977 RMK A01 T00531138  RH  024%=      5-min Rain = 0
KBR1 201822Z 24012KT 05/M13 A2977 RMK A01 T00541134  RH  024%=      5-min Rain = 0
KBR1 201823Z 24007KT 05/M14 A2977 RMK A01 T00541136  RH  024%=      5-min Rain = 0
KBR1 201824Z 22006KT 05/M13 A2977 RMK A01 T00541132  RH  025%=      5-min Rain = 0
KBR1 201825Z 23008KT 06/M13 A2977 RMK A01 T00561132  RH  024%=      5-min Rain = 0
KBR1 201826Z 25009KT 06/M13 A2977 RMK A01 T00571133  RH  024%=      5-min Rain = 0
KBR1 201827Z 25011KT 06/M13 A2976 RMK A01 T00591130  RH  024%=      5-min Rain = 0
KBR1 201828Z 25011KT 07/M13 A2977 RMK A01 T00651129  RH  024%=      5-min Rain = 0
KBR1 201829Z 25009KT 06/M14 A2977 RMK A01 T00631136  RH  023%=      5-min Rain = 0
KBR1 201830Z 25008KT 06/M14 A2977 RMK A01 T00611136  RH  023%=      5-min Rain = 0
KBR1 201831Z 24013KT 06/M14 A2976 RMK A01 T00601137  RH  023%=      5-min Rain = 0
KBR1 201832Z 24013KT 06/M14 A2977 RMK A01 T00611136  RH  023%=      5-min Rain = 0
KBR1 201833Z 25011KT 06/M14 A2976 RMK A01 T00621136  RH  023%=      5-min Rain = 0
KBR1 201834Z 24012KT 06/M14 A2976 RMK A01 T00631136  RH  023%=      5-min Rain = 0
KBR1 201835Z 26009KT 06/M14 A2976 RMK A01 T00621139  RH  022%=      5-min Rain = 0
KBR1 201836Z 24011KT 06/M14 A2976 RMK A01 T00611139  RH  022%=      5-min Rain = 0
KBR1 201837Z 23009KT 06/M14 A2976 RMK A01 T00591143  RH  022%=      5-min Rain = 0
KBR1 201838Z 23011KT 06/M14 A2976 RMK A01 T00591141  RH  022%=      5-min Rain = 0
KBR1 201839Z 23012KT 07/M14 A2976 RMK A01 T00661137  RH  022%=      5-min Rain = 0
KBR1 201840Z 22011KT 06/M14 A2976 RMK A01 T00641142  RH  021%=      5-min Rain = 0
KBR1 201841Z 21012KT 07/M14 A2976 RMK A01 T00681136  RH  022%=      5-min Rain = 0
KBR1 201842Z 20013KT 07/M14 A2976 RMK A01 T00681140  RH  021%=      5-min Rain = 0
KBR1 201843Z 21012KT 07/M14 A2976 RMK A01 T00661142  RH  021%=      5-min Rain = 0
KBR1 201844Z 22014KT 07/M14 A2976 RMK A01 T00711138  RH  021%=      5-min Rain = 0
KBR1 201845Z 23013KT 07/M14 A2976 RMK A01 T00731142  RH  020%=      5-min Rain = 0
KBR1 201846Z 23009KT 07/M14 A2976 RMK A01 T00741142  RH  020%=      5-min Rain = 0
KBR1 201847Z 24011KT 07/M14 A2976 RMK A01 T00731144  RH  020%=      5-min Rain = 0
KBR1 201848Z 25008KT 07/M15 A2976 RMK A01 T00691145  RH  020%=      5-min Rain = 0
KBR1 201849Z 24009KT 06/M15 A2976 RMK A01 T00631148  RH  020%=      5-min Rain = 0
KBR1 201850Z 23012KT 07/M14 A2976 RMK A01 T00651143  RH  021%=      5-min Rain = 0
KBR1 201851Z 22013KT 07/M14 A2976 RMK A01 T00701143  RH  020%=      5-min Rain = 0
KBR1 201852Z 23014KT 07/M15 A2976 RMK A01 T00691147  RH  020%=      5-min Rain = 0
KBR1 201853Z 23012KT 07/M15 A2976 RMK A01 T00691146  RH  020%=      5-min Rain = 0
KBR1 201854Z 24014KT 07/M15 A2976 RMK A01 T00691146  RH  020%=      5-min Rain = 0
KBR1 201855Z 25012KT 07/M15 A2976 RMK A01 T00681149  RH  019%=      5-min Rain = 0
KBR1 201856Z 24009G14KT 07/M15 A2976 RMK A01 T00661150  RH  020%=      5-min Rain = 0
KBR1 201857Z 25014KT 07/M15 A2976 RMK A01 T00651150  RH  020%=      5-min Rain = 0
KBR1 201858Z 26012KT 07/M15 A2976 RMK A01 T00661153  RH  019%=      5-min Rain = 0
KBR1 201859Z 25010KT 07/M15 A2976 RMK A01 T00661154  RH  019%=      5-min Rain = 0
KBR1 201900Z 26010KT 07/M15 A2976 RMK A01 T00671152  RH  019%=      5-min Rain = 0
KBR1 201901Z 27007KT 07/M15 A2976 RMK A01 T00681149  RH  020%=      5-min Rain = 0
KBR1 201902Z 26009KT 07/M15 A2976 RMK A01 T00681145  RH  020%=      5-min Rain = 0
KBR1 201903Z 22012KT 07/M14 A2976 RMK A01 T00731139  RH  020%=      5-min Rain = 0
KBR1 201904Z 23016G22KT 08/M14 A2976 RMK A01 T00761141  RH  020%=      5-min Rain = 0
KBR1 201905Z 22015KT 08/M14 A2976 RMK A01 T00771144  RH  019%=      5-min Rain = 0
KBR1 201906Z 22012G18KT 08/M15 A2976 RMK A01 T00761148  RH  019%=      5-min Rain = 0
KBR1 201907Z 23012KT 08/M15 A2976 RMK A01 T00781148  RH  018%=      5-min Rain = 0
KBR1 201908Z 22009KT 08/M15 A2976 RMK A01 T00791153  RH  018%=      5-min Rain = 0
KBR1 201909Z 22014KT 08/M16 A2976 RMK A01 T00781155  RH  017%=      5-min Rain = 0
KBR1 201910Z 22013KT 08/M15 A2976 RMK A01 T00771152  RH  018%=      5-min Rain = 0
KBR1 201911Z 22010KT 08/M15 A2976 RMK A01 T00761154  RH  018%=      5-min Rain = 0
KBR1 201912Z 22012G18KT 07/M15 A2976 RMK A01 T00731154  RH  018%=      5-min Rain = 0
KBR1 201913Z 23016KT 08/M15 A2976 RMK A01 T00771150  RH  018%=      5-min Rain = 0
KBR1 201914Z 23014KT 08/M15 A2976 RMK A01 T00791152  RH  018%=      5-min Rain = 0
KBR1 201915Z 23010KT 08/M16 A2976 RMK A01 T00761157  RH  017%=      5-min Rain = 0
KBR1 201916Z 23015KT 08/M16 A2976 RMK A01 T00761155  RH  018%=      5-min Rain = 0
KBR1 201917Z 23015G20KT 08/M16 A2976 RMK A01 T00761155  RH  018%=      5-min Rain = 0
KBR1 201918Z 25014KT 08/M16 A2976 RMK A01 T00761158  RH  017%=      5-min Rain = 0
KBR1 201919Z 24012KT 07/M16 A2976 RMK A01 T00741157  RH  018%=      5-min Rain = 0
KBR1 201920Z 24013KT 08/M15 A2976 RMK A01 T00801150  RH  018%=      5-min Rain = 0
KBR1 201921Z 24012KT 08/M15 A2976 RMK A01 T00841152  RH  017%=      5-min Rain = 0
KBR1 201922Z 23016KT 08/M16 A2976 RMK A01 T00841155  RH  017%=      5-min Rain = 0
KBR1 201923Z 22017KT 08/M16 A2975 RMK A01 T00801157  RH  017%=      5-min Rain = 0
KBR1 201924Z 21015KT 08/M16 A2975 RMK A01 T00751161  RH  017%=      5-min Rain = 0
KBR1 201925Z 23014KT 08/M16 A2975 RMK A01 T00771160  RH  017%=      5-min Rain = 0
KBR1 201926Z 22015KT 08/M16 A2975 RMK A01 T00821155  RH  017%=      5-min Rain = 0
KBR1 201927Z 22016KT 08/M16 A2975 RMK A01 T00821157  RH  017%=      5-min Rain = 0
KBR1 201928Z 24013KT 08/M15 A2975 RMK A01 T00831153  RH  017%=      5-min Rain = 0
KBR1 201929Z 25017G23KT 09/M15 A2975 RMK A01 T00851154  RH  017%=      5-min Rain = 0
KBR1 201930Z 24016G21KT 08/M16 A2975 RMK A01 T00841157  RH  016%=      5-min Rain = 0
KBR1 201931Z 25016KT 08/M16 A2975 RMK A01 T00801163  RH  016%=      5-min Rain = 0
KBR1 201932Z 24017G23KT 08/M16 A2975 RMK A01 T00781164  RH  016%=      5-min Rain = 0
KBR1 201933Z 24018G23KT 08/M16 A2975 RMK A01 T00791161  RH  017%=      5-min Rain = 0
KBR1 201934Z 24017KT 08/M16 A2975 RMK A01 T00781160  RH  017%=      5-min Rain = 0
KBR1 201935Z 24015KT 08/M16 A2975 RMK A01 T00791160  RH  017%=      5-min Rain = 0
KBR1 201936Z 24012KT 08/M16 A2975 RMK A01 T00791161  RH  017%=      5-min Rain = 0
KBR1 201937Z 23017KT 08/M16 A2975 RMK A01 T00811158  RH  017%=      5-min Rain = 0
KBR1 201938Z 23016G21KT 08/M16 A2975 RMK A01 T00821158  RH  016%=      5-min Rain = 0
KBR1 201939Z 23018KT 09/M16 A2975 RMK A01 T00861155  RH  016%=      5-min Rain = 0
KBR1 201940Z 23018KT 08/M16 A2975 RMK A01 T00821164  RH  016%=      5-min Rain = 0
KBR1 201941Z 23015KT 08/M17 A2975 RMK A01 T00801165  RH  016%=      5-min Rain = 0
KBR1 201942Z 24012KT 08/M16 A2975 RMK A01 T00801162  RH  016%=      5-min Rain = 0
KBR1 201943Z 22014KT 08/M16 A2975 RMK A01 T00801160  RH  017%=      5-min Rain = 0
KBR1 201944Z 23015KT 08/M16 A2975 RMK A01 T00791158  RH  017%=      5-min Rain = 0
KBR1 201945Z 22017KT 08/M15 A2975 RMK A01 T00831154  RH  017%=      5-min Rain = 0
KBR1 201946Z 23015KT 08/M16 A2975 RMK A01 T00831155  RH  017%=      5-min Rain = 0
KBR1 201947Z 23010KT 08/M16 A2974 RMK A01 T00791159  RH  017%=      5-min Rain = 0
KBR1 201948Z 22015KT 08/M15 A2974 RMK A01 T00811152  RH  017%=      5-min Rain = 0
KBR1 201949Z 23016G21KT 08/M15 A2974 RMK A01 T00841151  RH  017%=      5-min Rain = 0
KBR1 201950Z 21017KT 09/M15 A2974 RMK A01 T00871150  RH  017%=      5-min Rain = 0
KBR1 201951Z 21018KT 09/M15 A2974 RMK A01 T00871153  RH  017%=      5-min Rain = 0
KBR1 201952Z 22017KT 08/M16 A2974 RMK A01 T00831157  RH  017%=      5-min Rain = 0
KBR1 201953Z 22015KT 08/M16 A2974 RMK A01 T00821156  RH  017%=      5-min Rain = 0
KBR1 201954Z 22015KT 08/M16 A2974 RMK A01 T00811155  RH  017%=      5-min Rain = 0
KBR1 201955Z 22013KT 08/M15 A2974 RMK A01 T00831154  RH  017%=      5-min Rain = 0
KBR1 201956Z 23014KT 08/M16 A2974 RMK A01 T00821155  RH  017%=      5-min Rain = 0
KBR1 201957Z 22017KT 08/M16 A2974 RMK A01 T00841155  RH  017%=      5-min Rain = 0
KBR1 201958Z 21019KT 09/M15 A2973 RMK A01 T00881153  RH  016%=      5-min Rain = 0
KBR1 201959Z 22014G21KT 09/M16 A2974 RMK A01 T00851158  RH  016%=      5-min Rain = 0
KBR1 202000Z 21013KT 08/M16 A2974 RMK A01 T00841159  RH  016%=      5-min Rain = 0
KBR1 202001Z 21015KT 09/M16 A2973 RMK A01 T00851157  RH  016%=      5-min Rain = 0
KBR1 202002Z 20015KT 09/M16 A2973 RMK A01 T00871156  RH  016%=      5-min Rain = 0
KBR1 202003Z 20014G21KT 09/M16 A2973 RMK A01 T00861156  RH  016%=      5-min Rain = 0
KBR1 202004Z 22017KT 09/M15 A2973 RMK A01 T00871154  RH  017%=      5-min Rain = 0
KBR1 202005Z 24018G23KT 09/M15 A2974 RMK A01 T00871154  RH  016%=      5-min Rain = 0
KBR1 202006Z 24018KT 09/M16 A2974 RMK A01 T00861156  RH  016%=      5-min Rain = 0
KBR1 202007Z 24014KT 08/M16 A2974 RMK A01 T00831156  RH  017%=      5-min Rain = 0
KBR1 202008Z 24011KT 08/M16 A2973 RMK A01 T00811156  RH  017%=      5-min Rain = 0
KBR1 202009Z 24011KT 08/M16 A2973 RMK A01 T00811155  RH  017%=      5-min Rain = 0
KBR1 202010Z 23012G18KT 08/M15 A2973 RMK A01 T00831152  RH  017%=      5-min Rain = 0
KBR1 202011Z 24014KT 09/M15 A2973 RMK A01 T00851152  RH  017%=      5-min Rain = 0
KBR1 202012Z 22016KT 09/M15 A2973 RMK A01 T00891150  RH  017%=      5-min Rain = 0
KBR1 202013Z 22017KT 09/M15 A2973 RMK A01 T00901153  RH  016%=      5-min Rain = 0
KBR1 202014Z 21017KT 09/M16 A2973 RMK A01 T00881155  RH  016%=      5-min Rain = 0
KBR1 202015Z 22016KT 09/M16 A2973 RMK A01 T00851156  RH  016%=      5-min Rain = 0
KBR1 202016Z 22017KT 09/M15 A2973 RMK A01 T00871154  RH  017%=      5-min Rain = 0
KBR1 202017Z 22015KT 09/M15 A2972 RMK A01 T00881153  RH  017%=      5-min Rain = 0
KBR1 202018Z 23014KT 09/M16 A2972 RMK A01 T00871155  RH  016%=      5-min Rain = 0
KBR1 202019Z 22011KT 08/M16 A2972 RMK A01 T00831157  RH  016%=      5-min Rain = 0
KBR1 202020Z 22016KT 09/M15 A2972 RMK A01 T00851152  RH  017%=      5-min Rain = 0
KBR1 202021Z 23018KT 09/M15 A2972 RMK A01 T00881151  RH  017%=      5-min Rain = 0
KBR1 202022Z 23017KT 09/M16 A2972 RMK A01 T00861155  RH  016%=      5-min Rain = 0
KBR1 202023Z 22014KT 08/M16 A2972 RMK A01 T00841155  RH  017%=      5-min Rain = 0
KBR1 202024Z 21014KT 09/M15 A2972 RMK A01 T00881151  RH  017%=      5-min Rain = 0
KBR1 202025Z 22016KT 09/M15 A2972 RMK A01 T00921151  RH  016%=      5-min Rain = 0
KBR1 202026Z 22016KT 09/M15 A2972 RMK A01 T00911153  RH  016%=      5-min Rain = 0
KBR1 202027Z 19014KT 09/M16 A2972 RMK A01 T00871158  RH  016%=      5-min Rain = 0
KBR1 202028Z 21017KT 09/M16 A2972 RMK A01 T00871155  RH  016%=      5-min Rain = 0
KBR1 202029Z 22015G20KT 09/M15 A2972 RMK A01 T00871154  RH  016%=      5-min Rain = 0
KBR1 202030Z 23018KT 09/M15 A2972 RMK A01 T00881154  RH  016%=      5-min Rain = 0
KBR1 202031Z 22019KT 09/M15 A2972 RMK A01 T00881154  RH  016%=      5-min Rain = 0
KBR1 202032Z 22015KT 09/M16 A2972 RMK A01 T00881155  RH  016%=      5-min Rain = 0
KBR1 202033Z 23012KT 09/M16 A2972 RMK A01 T00861157  RH  016%=      5-min Rain = 0
KBR1 202034Z 23011G16KT 09/M16 A2972 RMK A01 T00851159  RH  016%=      5-min Rain = 0
KBR1 202035Z 22010KT 08/M16 A2972 RMK A01 T00841159  RH  016%=      5-min Rain = 0
KBR1 202036Z 22011KT 08/M16 A2971 RMK A01 T00841158  RH  016%=      5-min Rain = 0
KBR1 202037Z 24018G23KT 09/M16 A2971 RMK A01 T00871155  RH  016%=      5-min Rain = 0
KBR1 202038Z 23016KT 09/M16 A2972 RMK A01 T00871158  RH  016%=      5-min Rain = 0
KBR1 202039Z 24013KT 09/M16 A2971 RMK A01 T00851160  RH  016%=      5-min Rain = 0
KBR1 202040Z 24011KT 08/M16 A2971 RMK A01 T00831160  RH  016%=      5-min Rain = 0
KBR1 202041Z 22013KT 08/M16 A2971 RMK A01 T00841157  RH  016%=      5-min Rain = 0
KBR1 202042Z 22010KT 09/M16 A2971 RMK A01 T00861157  RH  016%=      5-min Rain = 0
KBR1 202043Z 24008KT 09/M16 A2971 RMK A01 T00851159  RH  016%=      5-min Rain = 0
KBR1 202044Z 25011KT 09/M15 A2971 RMK A01 T00881152  RH  017%=      5-min Rain = 0
KBR1 202045Z 24012KT 09/M15 A2971 RMK A01 T00941146  RH  017%=      5-min Rain = 0
KBR1 202046Z 24010G16KT 09/M15 A2971 RMK A01 T00921150  RH  017%=      5-min Rain = 0
KBR1 202047Z 23015KT 09/M15 A2971 RMK A01 T00931148  RH  017%=      5-min Rain = 0
KBR1 202048Z 23016KT 09/M15 A2971 RMK A01 T00941149  RH  016%=      5-min Rain = 0
KBR1 202049Z 24017KT 09/M15 A2971 RMK A01 T00941149  RH  016%=      5-min Rain = 0
KBR1 202050Z 24015KT 09/M15 A2971 RMK A01 T00911153  RH  016%=      5-min Rain = 0
KBR1 202051Z 22018KT 09/M15 A2971 RMK A01 T00911151  RH  016%=      5-min Rain = 0
KBR1 202052Z 22018KT 09/M15 A2971 RMK A01 T00901154  RH  016%=      5-min Rain = 0
KBR1 202053Z 22015KT 09/M16 A2971 RMK A01 T00891157  RH  016%=      5-min Rain = 0
KBR1 202054Z 22012KT 09/M16 A2971 RMK A01 T00901155  RH  016%=      5-min Rain = 0
KBR1 202055Z 22011KT 09/M15 A2971 RMK A01 T00911154  RH  016%=      5-min Rain = 0
KBR1 202056Z 24011G16KT 09/M15 A2971 RMK A01 T00891154  RH  016%=      5-min Rain = 0
KBR1 202057Z 23010KT 09/M15 A2971 RMK A01 T00881154  RH  016%=      5-min Rain = 0
KBR1 202058Z 23016G22KT 09/M15 A2971 RMK A01 T00891149  RH  017%=      5-min Rain = 0
KBR1 202059Z 22018KT 09/M15 A2971 RMK A01 T00901148  RH  017%=      5-min Rain = 0
KBR1 202100Z 23014KT 09/M15 A2971 RMK A01 T00911148  RH  017%=      5-min Rain = 0
KBR1 202101Z 24013KT 09/M15 A2971 RMK A01 T00891151  RH  017%=      5-min Rain = 0
KBR1 202102Z 23009KT 09/M15 A2971 RMK A01 T00851154  RH  017%=      5-min Rain = 0
KBR1 202103Z 24012G17KT 09/M15 A2971 RMK A01 T00881148  RH  017%=      5-min Rain = 0
KBR1 202104Z 23015KT 09/M15 A2971 RMK A01 T00931147  RH  017%=      5-min Rain = 0
KBR1 202105Z 22015G22KT 09/M15 A2971 RMK A01 T00941148  RH  016%=      5-min Rain = 0
KBR1 202106Z 23019KT 09/M15 A2971 RMK A01 T00931150  RH  016%=      5-min Rain = 0
KBR1 202107Z 24016KT 09/M15 A2971 RMK A01 T00891153  RH  016%=      5-min Rain = 0
KBR1 202108Z 24015KT 09/M15 A2971 RMK A01 T00861154  RH  017%=      5-min Rain = 0
KBR1 202109Z 23016KT 09/M15 A2971 RMK A01 T00861153  RH  017%=      5-min Rain = 0
KBR1 202110Z 22016KT 09/M15 A2971 RMK A01 T00871152  RH  017%=      5-min Rain = 0
KBR1 202111Z 23014KT 09/M15 A2971 RMK A01 T00901149  RH  017%=      5-min Rain = 0
KBR1 202112Z 25014KT 09/M15 A2971 RMK A01 T00901151  RH  017%=      5-min Rain = 0
KBR1 202113Z 25013KT 09/M15 A2971 RMK A01 T00881152  RH  017%=      5-min Rain = 0
KBR1 202114Z 23017KT 09/M15 A2971 RMK A01 T00881150  RH  017%=      5-min Rain = 0
KBR1 202115Z 22013KT 09/M15 A2971 RMK A01 T00891147  RH  017%=      5-min Rain = 0
KBR1 202116Z 22014KT 09/M15 A2971 RMK A01 T00911145  RH  017%=      5-min Rain = 0
KBR1 202117Z 24012KT 09/M14 A2971 RMK A01 T00941142  RH  017%=      5-min Rain = 0
KBR1 202118Z 23012G18KT 10/M14 A2971 RMK A01 T00961143  RH  017%=      5-min Rain = 0
KBR1 202119Z 23016KT 10/M14 A2971 RMK A01 T00971142  RH  017%=      5-min Rain = 0
KBR1 202120Z 22015KT 09/M15 A2971 RMK A01 T00941145  RH  017%=      5-min Rain = 0
KBR1 202121Z 25019KT 09/M15 A2971 RMK A01 T00931145  RH  017%=      5-min Rain = 0
KBR1 202122Z 25016KT 09/M15 A2971 RMK A01 T00911146  RH  017%=      5-min Rain = 0
KBR1 202123Z 25015KT 09/M15 A2971 RMK A01 T00891147  RH  017%=      5-min Rain = 0
KBR1 202124Z 25014KT 09/M15 A2971 RMK A01 T00881146  RH  018%=      5-min Rain = 0
KBR1 202125Z 24014KT 09/M14 A2971 RMK A01 T00881144  RH  018%=      5-min Rain = 0
KBR1 202126Z 23016KT 09/M14 A2971 RMK A01 T00921141  RH  018%=      5-min Rain = 0
KBR1 202127Z 24013KT 09/M14 A2971 RMK A01 T00921143  RH  017%=      5-min Rain = 0
KBR1 202128Z 22019KT 09/M14 A2971 RMK A01 T00931142  RH  017%=      5-min Rain = 0
KBR1 202129Z 21018KT 09/M14 A2971 RMK A01 T00931144  RH  017%=      5-min Rain = 0
KBR1 202130Z 22018KT 09/M14 A2971 RMK A01 T00921144  RH  017%=      5-min Rain = 0
KBR1 202131Z 21017KT 09/M14 A2971 RMK A01 T00911144  RH  017%=      5-min Rain = 0
KBR1 202132Z 21014KT 09/M14 A2971 RMK A01 T00911143  RH  018%=      5-min Rain = 0
KBR1 202133Z 21012KT 09/M14 A297 RMK A01 T00911142  RH  018%=      5-min Rain = 0
KBR1 202134Z 21017KT 09/M14 A297 RMK A01 T00921141  RH  018%=      5-min Rain = 0
KBR1 202135Z 22013KT 09/M14 A2971 RMK A01 T00931139  RH  018%=      5-min Rain = 0
KBR1 202136Z 24010KT 10/M14 A2971 RMK A01 T00961137  RH  018%=      5-min Rain = 0
KBR1 202137Z 23014KT 10/M14 A2971 RMK A01 T00981137  RH  018%=      5-min Rain = 0
KBR1 202138Z 23011KT 10/M14 A2971 RMK A01 T00971138  RH  018%=      5-min Rain = 0
KBR1 202139Z 24014KT 10/M14 A2971 RMK A01 T00951138  RH  018%=      5-min Rain = 0
KBR1 202140Z 23015KT 09/M14 A2971 RMK A01 T00941139  RH  018%=      5-min Rain = 0
KBR1 202141Z 23016KT 09/M14 A2971 RMK A01 T00921138  RH  018%=      5-min Rain = 0
KBR1 202142Z 24017KT 10/M14 A2971 RMK A01 T00961135  RH  018%=      5-min Rain = 0
KBR1 202143Z 23016KT 10/M14 A2971 RMK A01 T00961136  RH  018%=      5-min Rain = 0
KBR1 202144Z 22017KT 10/M13 A2971 RMK A01 T00991133  RH  018%=      5-min Rain = 0
KBR1 202145Z 21016KT 10/M14 A297 RMK A01 T01001136  RH  017%=      5-min Rain = 0
KBR1 202146Z 22017KT 10/M14 A2971 RMK A01 T00971137  RH  018%=      5-min Rain = 0
KBR1 202147Z 21018KT 10/M14 A297 RMK A01 T00981135  RH  018%=      5-min Rain = 0
KBR1 202148Z 22017KT 10/M14 A2971 RMK A01 T00971136  RH  018%=      5-min Rain = 0
KBR1 202149Z 23018KT 10/M14 A2971 RMK A01 T00971135  RH  018%=      5-min Rain = 0
KBR1 202150Z 24017KT 10/M13 A2971 RMK A01 T00971134  RH  018%=      5-min Rain = 0
KBR1 202151Z 23016KT 09/M14 A2971 RMK A01 T00941136  RH  018%=      5-min Rain = 0
KBR1 202152Z 23019G25KT 10/M13 A2971 RMK A01 T00951133  RH  019%=      5-min Rain = 0
KBR1 202153Z 22018KT 10/M13 A297 RMK A01 T00951134  RH  018%=      5-min Rain = 0
KBR1 202154Z 22019G24KT 10/M13 A297 RMK A01 T00951132  RH  019%=      5-min Rain = 0
KBR1 202155Z 22015G21KT 10/M13 A297 RMK A01 T00961132  RH  019%=      5-min Rain = 0
KBR1 202156Z 23018KT 10/M13 A297 RMK A01 T00981131  RH  018%=      5-min Rain = 0
KBR1 202157Z 23019KT 10/M13 A297 RMK A01 T00971134  RH  018%=      5-min Rain = 0
KBR1 202158Z 23015KT 10/M14 A297 RMK A01 T00951135  RH  018%=      5-min Rain = 0
KBR1 202159Z 24014KT 10/M13 A297 RMK A01 T00971133  RH  018%=      5-min Rain = 0
KBR1 202200Z 22014KT 10/M13 A297 RMK A01 T00971132  RH  019%=      5-min Rain = 0
KBR1 202201Z 22016G22KT 10/M13 A297 RMK A01 T00971132  RH  018%=      5-min Rain = 0
KBR1 202202Z 22021KT 10/M13 A297 RMK A01 T00981132  RH  018%=      5-min Rain = 0
KBR1 202203Z 22021KT 10/M14 A297 RMK A01 T00971135  RH  018%=      5-min Rain = 0
KBR1 202204Z 23019KT 09/M14 A297 RMK A01 T00941135  RH  018%=      5-min Rain = 0
KBR1 202205Z 22018KT 10/M13 A297 RMK A01 T00951133  RH  019%=      5-min Rain = 0
KBR1 202206Z 23016KT 10/M13 A297 RMK A01 T00951132  RH  019%=      5-min Rain = 0
KBR1 202207Z 23016KT 10/M13 A297 RMK A01 T00951132  RH  019%=      5-min Rain = 0
KBR1 202208Z 22018G24KT 09/M13 A297 RMK A01 T00931133  RH  019%=      5-min Rain = 0
KBR1 202209Z 24018KT 10/M13 A297 RMK A01 T00951131  RH  019%=      5-min Rain = 0
KBR1 202210Z 24017KT 10/M13 A297 RMK A01 T00951133  RH  019%=      5-min Rain = 0
KBR1 202211Z 23013G18KT 09/M13 A297 RMK A01 T00921133  RH  019%=      5-min Rain = 0
KBR1 202212Z 23012KT 09/M13 A297 RMK A01 T00931131  RH  019%=      5-min Rain = 0
KBR1 202213Z 22015KT 10/M13 A297 RMK A01 T00991127  RH  019%=      5-min Rain = 0
KBR1 202214Z 22014KT 10/M13 A297 RMK A01 T01011128  RH  019%=      5-min Rain = 0
KBR1 202215Z 23014G19KT 10/M13 A297 RMK A01 T01011128  RH  019%=      5-min Rain = 0
KBR1 202216Z 21015KT 10/M13 A297 RMK A01 T01031127  RH  018%=      5-min Rain = 0
KBR1 202217Z 23012KT 10/M13 A297 RMK A01 T01011132  RH  018%=      5-min Rain = 0
KBR1 202218Z 23015KT 10/M13 A297 RMK A01 T00971133  RH  018%=      5-min Rain = 0
KBR1 202219Z 24014KT 10/M13 A297 RMK A01 T00961132  RH  019%=      5-min Rain = 0
KBR1 202220Z 24011KT 10/M13 A297 RMK A01 T00981129  RH  019%=      5-min Rain = 0
KBR1 202221Z 24011KT 10/M13 A297 RMK A01 T01011128  RH  019%=      5-min Rain = 0
KBR1 202222Z 24013G18KT 10/M13 A297 RMK A01 T01021128  RH  018%=      5-min Rain = 0
KBR1 202223Z 23017KT 10/M13 A297 RMK A01 T01031128  RH  018%=      5-min Rain = 0
KBR1 202224Z 23017G22KT 10/M13 A297 RMK A01 T01021129  RH  018%=      5-min Rain = 0
KBR1 202225Z 23016KT 10/M13 A297 RMK A01 T00991132  RH  018%=      5-min Rain = 0
KBR1 202226Z 22014G20KT 10/M13 A297 RMK A01 T00951133  RH  019%=      5-min Rain = 0
KBR1 202227Z 21015KT 10/M13 A297 RMK A01 T00951131  RH  019%=      5-min Rain = 0
KBR1 202228Z 22016KT 10/M13 A297 RMK A01 T00951130  RH  019%=      5-min Rain = 0
KBR1 202229Z 21015KT 10/M13 A297 RMK A01 T00981127  RH  019%=      5-min Rain = 0
KBR1 202230Z 21015G21KT 10/M13 A297 RMK A01 T01011127  RH  019%=      5-min Rain = 0
KBR1 202231Z 20018KT 10/M13 A2969 RMK A01 T01011129  RH  018%=      5-min Rain = 0
KBR1 202232Z 20014KT 10/M13 A297 RMK A01 T00971133  RH  018%=      5-min Rain = 0
KBR1 202233Z 21015G21KT 10/M13 A2969 RMK A01 T00961131  RH  019%=      5-min Rain = 0
KBR1 202234Z 22016G21KT 10/M13 A2969 RMK A01 T00971130  RH  019%=      5-min Rain = 0
KBR1 202235Z 21018KT 10/M13 A2969 RMK A01 T01001128  RH  019%=      5-min Rain = 0
KBR1 202236Z 20019KT 10/M13 A2969 RMK A01 T00991130  RH  018%=      5-min Rain = 0
KBR1 202237Z 21019KT 10/M13 A2969 RMK A01 T00991130  RH  019%=      5-min Rain = 0
KBR1 202238Z 21017KT 10/M13 A297 RMK A01 T00991129  RH  019%=      5-min Rain = 0
KBR1 202239Z 21019KT 10/M13 A297 RMK A01 T00981131  RH  019%=      5-min Rain = 0
KBR1 202240Z 21021KT 10/M13 A2969 RMK A01 T00981130  RH  019%=      5-min Rain = 0
KBR1 202241Z 22021KT 10/M13 A297 RMK A01 T00981129  RH  019%=      5-min Rain = 0
KBR1 202242Z 22021KT 10/M13 A297 RMK A01 T00981128  RH  019%=      5-min Rain = 0
KBR1 202243Z 23017KT 10/M13 A297 RMK A01 T00971130  RH  019%=      5-min Rain = 0
KBR1 202244Z 23011KT 10/M13 A297 RMK A01 T00961130  RH  019%=      5-min Rain = 0
KBR1 202245Z 22010KT 10/M13 A297 RMK A01 T00961130  RH  019%=      5-min Rain = 0
KBR1 202246Z 22015G22KT 10/M13 A297 RMK A01 T00971129  RH  019%=      5-min Rain = 0
KBR1 202247Z 22018KT 10/M13 A297 RMK A01 T00981128  RH  019%=      5-min Rain = 0
KBR1 202248Z 22017KT 10/M13 A297 RMK A01 T00971130  RH  019%=      5-min Rain = 0
KBR1 202249Z 22018KT 10/M13 A297 RMK A01 T00971129  RH  019%=      5-min Rain = 0
KBR1 202250Z 21016KT 10/M13 A297 RMK A01 T00981128  RH  019%=      5-min Rain = 0
KBR1 202251Z 21017G23KT 10/M13 A297 RMK A01 T00971128  RH  019%=      5-min Rain = 0
KBR1 202252Z 21020KT 10/M13 A2969 RMK A01 T00981128  RH  019%=      5-min Rain = 0
KBR1 202253Z 22017KT 10/M13 A297 RMK A01 T00991127  RH  019%=      5-min Rain = 0
KBR1 202254Z 22019KT 10/M13 A297 RMK A01 T01001126  RH  019%=      5-min Rain = 0
KBR1 202255Z 22017KT 10/M13 A297 RMK A01 T00991127  RH  019%=      5-min Rain = 0
KBR1 202256Z 22018KT 10/M13 A297 RMK A01 T00991125  RH  019%=      5-min Rain = 0
KBR1 202257Z 23021KT 10/M13 A297 RMK A01 T00991126  RH  019%=      5-min Rain = 0
KBR1 202258Z 23019KT 10/M13 A297 RMK A01 T00981128  RH  019%=      5-min Rain = 0
KBR1 202259Z 22018KT 10/M13 A297 RMK A01 T00961129  RH  019%=      5-min Rain = 0
KBR1 202300Z 22018KT 10/M13 A297 RMK A01 T00961128  RH  019%=      5-min Rain = 0
KBR1 202301Z 22016G22KT 10/M13 A297 RMK A01 T00961128  RH  019%=      5-min Rain = 0
KBR1 202302Z 22017KT 10/M13 A297 RMK A01 T00971128  RH  019%=      5-min Rain = 0
KBR1 202303Z 22015KT 10/M13 A297 RMK A01 T00981128  RH  019%=      5-min Rain = 0
KBR1 202304Z 21018KT 10/M13 A297 RMK A01 T00981128  RH  019%=      5-min Rain = 0
KBR1 202305Z 22016G21KT 10/M13 A297 RMK A01 T00971129  RH  019%=      5-min Rain = 0
KBR1 202306Z 23020KT 10/M13 A297 RMK A01 T00971128  RH  019%=      5-min Rain = 0
KBR1 202307Z 23017KT 10/M13 A297 RMK A01 T00971129  RH  019%=      5-min Rain = 0
KBR1 202308Z 23017KT 10/M13 A297 RMK A01 T00951130  RH  019%=      5-min Rain = 0
KBR1 202309Z 22016KT 10/M13 A297 RMK A01 T00961128  RH  019%=      5-min Rain = 0
KBR1 202310Z 22017KT 10/M13 A297 RMK A01 T00971127  RH  019%=      5-min Rain = 0
KBR1 202311Z 23018KT 10/M13 A297 RMK A01 T00961127  RH  019%=      5-min Rain = 0
KBR1 202312Z 23013KT 10/M13 A297 RMK A01 T00961127  RH  019%=      5-min Rain = 0
KBR1 202313Z 23014KT 10/M13 A297 RMK A01 T00971125  RH  020%=      5-min Rain = 0
KBR1 202314Z 21016KT 10/M13 A297 RMK A01 T00971125  RH  020%=      5-min Rain = 0
KBR1 202315Z 22014KT 10/M13 A297 RMK A01 T00971126  RH  019%=      5-min Rain = 0
KBR1 202316Z 21014G20KT 10/M13 A297 RMK A01 T00971126  RH  019%=      5-min Rain = 0
KBR1 202317Z 22016G22KT 10/M13 A297 RMK A01 T00981125  RH  019%=      5-min Rain = 0
KBR1 202318Z 23021KT 10/M13 A297 RMK A01 T00981125  RH  019%=      5-min Rain = 0
KBR1 202319Z 23020KT 10/M13 A297 RMK A01 T00961127  RH  019%=      5-min Rain = 0
KBR1 202320Z 23014G19KT 10/M13 A297 RMK A01 T00951126  RH  020%=      5-min Rain = 0
KBR1 202321Z 22017G24KT 10/M13 A297 RMK A01 T00951125  RH  020%=      5-min Rain = 0
KBR1 202322Z 23021KT 10/M12 A297 RMK A01 T00971124  RH  020%=      5-min Rain = 0
KBR1 202323Z 23019KT 10/M13 A297 RMK A01 T00951125  RH  020%=      5-min Rain = 0
KBR1 202324Z 22017KT 09/M13 A297 RMK A01 T00931125  RH  020%=      5-min Rain = 0
KBR1 202325Z 23017KT 09/M12 A297 RMK A01 T00941124  RH  020%=      5-min Rain = 0
KBR1 202326Z 23018KT 10/M12 A297 RMK A01 T00951123  RH  020%=      5-min Rain = 0
KBR1 202327Z 22016G21KT 10/M12 A297 RMK A01 T00951123  RH  020%=      5-min Rain = 0
KBR1 202328Z 22019G24KT 09/M12 A297 RMK A01 T00941123  RH  020%=      5-min Rain = 0
KBR1 202329Z 22019KT 09/M12 A297 RMK A01 T00941124  RH  020%=      5-min Rain = 0
KBR1 202330Z 23018KT 09/M12 A297 RMK A01 T00941124  RH  020%=      5-min Rain = 0
KBR1 202331Z 22017KT 10/M12 A297 RMK A01 T00951122  RH  020%=      5-min Rain = 0
KBR1 202332Z 23017G23KT 10/M12 A297 RMK A01 T00961121  RH  020%=      5-min Rain = 0
KBR1 202333Z 23021G26KT 10/M12 A297 RMK A01 T00961121  RH  020%=      5-min Rain = 0
KBR1 202334Z 23022KT 10/M12 A297 RMK A01 T00951122  RH  020%=      5-min Rain = 0
KBR1 202335Z 23020G25KT 10/M12 A297 RMK A01 T00951122  RH  020%=      5-min Rain = 0
KBR1 202336Z 23020KT 09/M12 A297 RMK A01 T00941121  RH  021%=      5-min Rain = 0
KBR1 202337Z 23021KT 09/M12 A297 RMK A01 T00941120  RH  021%=      5-min Rain = 0
KBR1 202338Z 22021KT 09/M12 A297 RMK A01 T00941120  RH  021%=      5-min Rain = 0
KBR1 202339Z 22018KT 09/M12 A297 RMK A01 T00931120  RH  021%=      5-min Rain = 0
KBR1 202340Z 22018KT 09/M12 A297 RMK A01 T00931121  RH  021%=      5-min Rain = 0
KBR1 202341Z 23016KT 09/M12 A297 RMK A01 T00931120  RH  021%=      5-min Rain = 0
KBR1 202342Z 23017KT 09/M12 A297 RMK A01 T00941119  RH  021%=      5-min Rain = 0
KBR1 202343Z 23017KT 09/M12 A297 RMK A01 T00931120  RH  021%=      5-min Rain = 0
KBR1 202344Z 22017KT 09/M12 A297 RMK A01 T00931120  RH  021%=      5-min Rain = 0
KBR1 202345Z 21016KT 09/M12 A297 RMK A01 T00941120  RH  021%=      5-min Rain = 0
KBR1 202346Z 21015KT 09/M12 A297 RMK A01 T00931120  RH  021%=      5-min Rain = 0
KBR1 202347Z 21014KT 09/M12 A297 RMK A01 T00921121  RH  021%=      5-min Rain = 0
KBR1 202348Z 22015KT 09/M12 A297 RMK A01 T00921121  RH  021%=      5-min Rain = 0
KBR1 202349Z 22014KT 09/M12 A297 RMK A01 T00921120  RH  021%=      5-min Rain = 0
KBR1 202350Z 22016KT 09/M12 A297 RMK A01 T00921121  RH  021%=      5-min Rain = 0
KBR1 202351Z 22013KT 09/M12 A297 RMK A01 T00921121  RH  021%=      5-min Rain = 0
KBR1 202352Z 23016KT 09/M12 A297 RMK A01 T00911122  RH  021%=      5-min Rain = 0
KBR1 202353Z 23014KT 09/M12 A297 RMK A01 T00911122  RH  021%=      5-min Rain = 0
KBR1 202354Z 23010KT 09/M12 A297 RMK A01 T00911122  RH  021%=      5-min Rain = 0
KBR1 202355Z 23011KT 09/M12 A2971 RMK A01 T00911121  RH  021%=      5-min Rain = 0
KBR1 202356Z 22011KT 09/M12 A2971 RMK A01 T00901121  RH  021%=      5-min Rain = 0
KBR1 202357Z 21010KT 09/M12 A297 RMK A01 T00911121  RH  021%=      5-min Rain = 0
KBR1 202358Z 21015KT 09/M12 A297 RMK A01 T00911119  RH  021%=      5-min Rain = 0
KBR1 202359Z 21015KT 09/M12 A297 RMK A01 T00901119  RH  021%=      5-min Rain = 0
KBR1 210000Z 21014KT 09/M12 A2971 RMK A01 T00901119  RH  021%=      5-min Rain = 0
KBR1 210001Z 21012KT 09/M12 A2971 RMK A01 T00901119  RH  021%=      5-min Rain = 0
KBR1 210002Z 21013KT 09/M12 A2971 RMK A01 T00891119  RH  022%=      5-min Rain = 0
KBR1 210003Z 21012KT 09/M12 A2971 RMK A01 T00881119  RH  022%=      5-min Rain = 0
KBR1 210004Z 22011KT 09/M12 A2971 RMK A01 T00881119  RH  022%=      5-min Rain = 0
KBR1 210005Z 22014KT 09/M12 A2971 RMK A01 T00881119  RH  022%=      5-min Rain = 0
KBR1 210006Z 23013KT 09/M12 A2971 RMK A01 T00871120  RH  022%=      5-min Rain = 0
KBR1 210007Z 22013KT 09/M12 A2971 RMK A01 T00871120  RH  022%=      5-min Rain = 0
KBR1 210008Z 22014KT 09/M12 A2971 RMK A01 T00861121  RH  022%=      5-min Rain = 0
KBR1 210009Z 21014KT 09/M12 A2971 RMK A01 T00861120  RH  022%=      5-min Rain = 0
KBR1 210010Z 21012KT 09/M12 A2971 RMK A01 T00861120  RH  022%=      5-min Rain = 0
KBR1 210011Z 22013KT 09/M12 A2971 RMK A01 T00851120  RH  022%=      5-min Rain = 0
KBR1 210012Z 22015KT 09/M12 A2971 RMK A01 T00851121  RH  022%=      5-min Rain = 0
KBR1 210013Z 22013KT 09/M12 A2971 RMK A01 T00851121  RH  022%=      5-min Rain = 0
KBR1 210014Z 22013KT 08/M12 A2971 RMK A01 T00841121  RH  022%=      5-min Rain = 0
KBR1 210015Z 22012KT 08/M12 A2971 RMK A01 T00841122  RH  022%=      5-min Rain = 0
KBR1 210016Z 23012KT 08/M12 A2971 RMK A01 T00831122  RH  022%=      5-min Rain = 0
KBR1 210017Z 23013KT 08/M12 A2971 RMK A01 T00821123  RH  022%=      5-min Rain = 0
KBR1 210018Z 23013KT 08/M12 A2971 RMK A01 T00811124  RH  022%=      5-min Rain = 0
KBR1 210019Z 23013KT 08/M13 A2971 RMK A01 T00811125  RH  022%=      5-min Rain = 0
KBR1 210020Z 23012KT 08/M13 A2971 RMK A01 T00801125  RH  022%=      5-min Rain = 0
KBR1 210021Z 23011KT 08/M13 A2971 RMK A01 T00791125  RH  022%=      5-min Rain = 0
KBR1 210022Z 23010KT 08/M13 A2971 RMK A01 T00781125  RH  022%=      5-min Rain = 0
KBR1 210023Z 23011KT 08/M13 A2971 RMK A01 T00771125  RH  022%=      5-min Rain = 0
KBR1 210024Z 23010KT 08/M13 A2971 RMK A01 T00771125  RH  022%=      5-min Rain = 0
KBR1 210025Z 23010KT 08/M13 A2971 RMK A01 T00771125  RH  022%=      5-min Rain = 0
KBR1 210026Z 23011KT 08/M13 A2971 RMK A01 T00761125  RH  022%=      5-min Rain = 0
KBR1 210027Z 23009KT 08/M13 A2971 RMK A01 T00751125  RH  023%=      5-min Rain = 0
KBR1 210028Z 23009KT 07/M13 A2971 RMK A01 T00741126  RH  023%=      5-min Rain = 0
KBR1 210029Z 23008KT 07/M13 A2971 RMK A01 T00721126  RH  023%=      5-min Rain = 0
KBR1 210030Z 23009KT 07/M13 A2971 RMK A01 T00711126  RH  023%=      5-min Rain = 0
KBR1 210031Z 23009KT 07/M13 A2971 RMK A01 T00701125  RH  023%=      5-min Rain = 0
KBR1 210032Z 22008KT 07/M13 A2972 RMK A01 T00691125  RH  024%=      5-min Rain = 0
KBR1 210033Z 22010KT 07/M13 A2972 RMK A01 T00681125  RH  024%=      5-min Rain = 0
KBR1 210034Z 22010KT 07/M13 A2972 RMK A01 T00671125  RH  024%=      5-min Rain = 0
KBR1 210035Z 22012KT 07/M12 A2972 RMK A01 T00671124  RH  024%=      5-min Rain = 0
KBR1 210036Z 22011KT 07/M12 A2972 RMK A01 T00671122  RH  024%=      5-min Rain = 0
KBR1 210037Z 22011KT 07/M12 A2972 RMK A01 T00671122  RH  025%=      5-min Rain = 0
KBR1 210038Z 22011KT 07/M12 A2972 RMK A01 T00671121  RH  025%=      5-min Rain = 0
KBR1 210039Z 22011KT 07/M12 A2972 RMK A01 T00671121  RH  025%=      5-min Rain = 0
KBR1 210040Z 22011KT 07/M12 A2972 RMK A01 T00661121  RH  025%=      5-min Rain = 0
KBR1 210041Z 22010KT 07/M12 A2972 RMK A01 T00651121  RH  025%=      5-min Rain = 0
KBR1 210042Z 22010KT 06/M12 A2972 RMK A01 T00631121  RH  025%=      5-min Rain = 0
KBR1 210043Z 22010KT 06/M12 A2972 RMK A01 T00621122  RH  025%=      5-min Rain = 0
KBR1 210044Z 22010KT 06/M12 A2972 RMK A01 T00601122  RH  026%=      5-min Rain = 0
KBR1 210045Z 21010KT 06/M12 A2972 RMK A01 T00601121  RH  026%=      5-min Rain = 0
KBR1 210046Z 22011KT 06/M12 A2972 RMK A01 T00601121  RH  026%=      5-min Rain = 0
KBR1 210047Z 21010KT 06/M12 A2972 RMK A01 T00601119  RH  026%=      5-min Rain = 0
KBR1 210048Z 21010KT 06/M12 A2972 RMK A01 T00601120  RH  026%=      5-min Rain = 0
KBR1 210049Z 21010KT 06/M12 A2972 RMK A01 T00601120  RH  026%=      5-min Rain = 0
KBR1 210050Z 21009KT 06/M12 A2972 RMK A01 T00581121  RH  026%=      5-min Rain = 0
KBR1 210051Z 21009KT 06/M12 A2973 RMK A01 T00561122  RH  027%=      5-min Rain = 0
KBR1 210052Z 21009KT 06/M12 A2973 RMK A01 T00551121  RH  027%=      5-min Rain = 0
KBR1 210053Z 21009KT 06/M12 A2973 RMK A01 T00561120  RH  027%=      5-min Rain = 0
KBR1 210054Z 21008KT 05/M12 A2973 RMK A01 T00541121  RH  027%=      5-min Rain = 0
KBR1 210055Z 20008KT 05/M12 A2973 RMK A01 T00521122  RH  027%=      5-min Rain = 0
KBR1 210056Z 21008KT 05/M12 A2973 RMK A01 T00501122  RH  027%=      5-min Rain = 0
KBR1 210057Z 21007KT 05/M12 A2973 RMK A01 T00501121  RH  028%=      5-min Rain = 0
KBR1 210058Z 21008KT 05/M12 A2973 RMK A01 T00501121  RH  028%=      5-min Rain = 0
KBR1 210059Z 21007KT 05/M12 A2973 RMK A01 T00501120  RH  028%=      5-min Rain = 0
KBR1 210100Z 21007KT 05/M12 A2973 RMK A01 T00501120  RH  028%=      5-min Rain = 0
KBR1 210101Z 21007KT 05/M12 A2973 RMK A01 T00501121  RH  028%=      5-min Rain = 0
KBR1 210102Z 21008KT 05/M12 A2973 RMK A01 T00501120  RH  028%=      5-min Rain = 0
KBR1 210103Z 21006KT 05/M12 A2973 RMK A01 T00511119  RH  028%=      5-min Rain = 0
KBR1 210104Z 22006KT 05/M12 A2973 RMK A01 T00501121  RH  028%=      5-min Rain = 0
KBR1 210105Z 22006KT 05/M12 A2973 RMK A01 T00481122  RH  028%=      5-min Rain = 0
KBR1 210106Z 22007KT 05/M12 A2973 RMK A01 T00461122  RH  028%=      5-min Rain = 0
KBR1 210107Z 22007KT 05/M12 A2973 RMK A01 T00461122  RH  029%=      5-min Rain = 0
KBR1 210108Z 22007KT 05/M12 A2973 RMK A01 T00451121  RH  029%=      5-min Rain = 0
KBR1 210109Z 22007KT 04/M12 A2973 RMK A01 T00441121  RH  029%=      5-min Rain = 0
KBR1 210110Z 21007KT 04/M12 A2973 RMK A01 T00441120  RH  029%=      5-min Rain = 0
KBR1 210111Z 21007KT 04/M12 A2974 RMK A01 T00441120  RH  029%=      5-min Rain = 0
KBR1 210112Z 21008KT 04/M12 A2974 RMK A01 T00431120  RH  029%=      5-min Rain = 0
KBR1 210113Z 21009KT 04/M12 A2974 RMK A01 T00441119  RH  030%=      5-min Rain = 0
KBR1 210114Z 21009KT 04/M12 A2974 RMK A01 T00441119  RH  030%=      5-min Rain = 0
KBR1 210115Z 21009KT 05/M12 A2974 RMK A01 T00451118  RH  030%=      5-min Rain = 0
KBR1 210116Z 21009KT 05/M12 A2974 RMK A01 T00461116  RH  030%=      5-min Rain = 0
KBR1 210117Z 20010KT 05/M12 A2974 RMK A01 T00481116  RH  029%=      5-min Rain = 0
KBR1 210118Z 20010KT 05/M12 A2974 RMK A01 T00481116  RH  029%=      5-min Rain = 0
KBR1 210119Z 20010KT 05/M12 A2974 RMK A01 T00491116  RH  029%=      5-min Rain = 0
KBR1 210120Z 20010KT 05/M12 A2974 RMK A01 T00491116  RH  029%=      5-min Rain = 0
KBR1 210121Z 20011KT 05/M12 A2974 RMK A01 T00491116  RH  029%=      5-min Rain = 0
KBR1 210122Z 20011KT 05/M12 A2974 RMK A01 T00501115  RH  029%=      5-min Rain = 0
KBR1 210123Z 20011KT 05/M12 A2974 RMK A01 T00501115  RH  029%=      5-min Rain = 0
KBR1 210124Z 20012KT 05/M12 A2974 RMK A01 T00501116  RH  029%=      5-min Rain = 0
KBR1 210125Z 20011KT 05/M12 A2974 RMK A01 T00501116  RH  029%=      5-min Rain = 0
KBR1 210126Z 20012KT 05/M12 A2974 RMK A01 T00491116  RH  029%=      5-min Rain = 0
KBR1 210127Z 20012KT 05/M12 A2974 RMK A01 T00481116  RH  029%=      5-min Rain = 0
KBR1 210128Z 20012KT 05/M12 A2974 RMK A01 T00481116  RH  029%=      5-min Rain = 0
KBR1 210129Z 20012KT 05/M12 A2974 RMK A01 T00481115  RH  029%=      5-min Rain = 0
KBR1 210130Z 20011KT 05/M12 A2974 RMK A01 T00481116  RH  030%=      5-min Rain = 0
KBR1 210131Z 20011KT 05/M12 A2974 RMK A01 T00471116  RH  030%=      5-min Rain = 0
KBR1 210132Z 20011KT 05/M12 A2974 RMK A01 T00451117  RH  030%=      5-min Rain = 0
KBR1 210133Z 20011KT 04/M12 A2974 RMK A01 T00441117  RH  030%=      5-min Rain = 0
KBR1 210134Z 20010KT 04/M12 A2974 RMK A01 T00441117  RH  030%=      5-min Rain = 0
KBR1 210135Z 20010KT 04/M12 A2974 RMK A01 T00431117  RH  030%=      5-min Rain = 0
KBR1 210136Z 20010KT 04/M12 A2974 RMK A01 T00411118  RH  030%=      5-min Rain = 0
KBR1 210137Z 20010KT 04/M12 A2975 RMK A01 T00401118  RH  031%=      5-min Rain = 0
KBR1 210138Z 20010KT 04/M12 A2975 RMK A01 T00381118  RH  031%=      5-min Rain = 0
KBR1 210139Z 20010KT 04/M12 A2975 RMK A01 T00371118  RH  031%=      5-min Rain = 0
KBR1 210140Z 20010KT 04/M12 A2975 RMK A01 T00381117  RH  031%=      5-min Rain = 0
KBR1 210141Z 20010KT 04/M12 A2975 RMK A01 T00371117  RH  031%=      5-min Rain = 0
KBR1 210142Z 21009KT 04/M12 A2975 RMK A01 T00381117  RH  031%=      5-min Rain = 0
KBR1 210143Z 20009KT 04/M12 A2975 RMK A01 T00381117  RH  031%=      5-min Rain = 0
KBR1 210144Z 20010KT 04/M12 A2975 RMK A01 T00381117  RH  031%=      5-min Rain = 0
KBR1 210145Z 21009KT 04/M12 A2975 RMK A01 T00381117  RH  031%=      5-min Rain = 0
KBR1 210146Z 20009KT 04/M12 A2975 RMK A01 T00381116  RH  031%=      5-min Rain = 0
KBR1 210147Z 20010KT 04/M12 A2975 RMK A01 T00371116  RH  032%=      5-min Rain = 0
KBR1 210148Z 20011KT 04/M12 A2975 RMK A01 T00371116  RH  032%=      5-min Rain = 0
KBR1 210149Z 20011KT 04/M12 A2975 RMK A01 T00381115  RH  032%=      5-min Rain = 0
KBR1 210150Z 20011KT 04/M12 A2975 RMK A01 T00391115  RH  031%=      5-min Rain = 0
KBR1 210151Z 20012KT 04/M12 A2975 RMK A01 T00391115  RH  031%=      5-min Rain = 0
KBR1 210152Z 20011KT 04/M12 A2975 RMK A01 T00401115  RH  031%=      5-min Rain = 0
KBR1 210153Z 20011KT 04/M12 A2975 RMK A01 T00401115  RH  031%=      5-min Rain = 0
KBR1 210154Z 20011KT 04/M12 A2975 RMK A01 T00401116  RH  031%=      5-min Rain = 0
KBR1 210155Z 20012KT 04/M12 A2975 RMK A01 T00411115  RH  031%=      5-min Rain = 0
KBR1 210156Z 20012KT 04/M11 A2975 RMK A01 T00431114  RH  031%=      5-min Rain = 0
KBR1 210157Z 20011KT 05/M11 A2975 RMK A01 T00451114  RH  031%=      5-min Rain = 0
KBR1 210158Z 20010KT 05/M11 A2975 RMK A01 T00451114  RH  030%=      5-min Rain = 0
KBR1 210159Z 20010KT 04/M12 A2975 RMK A01 T00431116  RH  030%=      5-min Rain = 0
KBR1 210200Z 20010KT 04/M12 A2975 RMK A01 T00411117  RH  031%=      5-min Rain = 0
KBR1 210201Z 20009KT 04/M12 A2975 RMK A01 T00391116  RH  031%=      5-min Rain = 0
KBR1 210202Z 20009KT 04/M12 A2975 RMK A01 T00381116  RH  031%=      5-min Rain = 0
KBR1 210203Z 20010KT 04/M12 A2976 RMK A01 T00361116  RH  032%=      5-min Rain = 0
KBR1 210204Z 20010KT 04/M12 A2976 RMK A01 T00351116  RH  032%=      5-min Rain = 0
KBR1 210205Z 20010KT 03/M12 A2976 RMK A01 T00341116  RH  033%=      5-min Rain = 0
KBR1 210206Z 20009KT 03/M12 A2976 RMK A01 T00331116  RH  033%=      5-min Rain = 0
KBR1 210207Z 20009KT 03/M12 A2976 RMK A01 T00311116  RH  033%=      5-min Rain = 0
KBR1 210208Z 20010KT 03/M12 A2976 RMK A01 T00301116  RH  033%=      5-min Rain = 0
KBR1 210209Z 20010KT 03/M12 A2976 RMK A01 T00301116  RH  033%=      5-min Rain = 0
KBR1 210210Z 19010KT 03/M12 A2976 RMK A01 T00291116  RH  033%=      5-min Rain = 0
KBR1 210211Z 19010KT 03/M12 A2976 RMK A01 T00291116  RH  034%=      5-min Rain = 0
KBR1 210212Z 20010KT 03/M12 A2976 RMK A01 T00291116  RH  034%=      5-min Rain = 0
KBR1 210213Z 20010KT 03/M12 A2976 RMK A01 T00291116  RH  034%=      5-min Rain = 0
KBR1 210214Z 20010KT 03/M12 A2976 RMK A01 T00301116  RH  033%=      5-min Rain = 0
KBR1 210215Z 20010KT 03/M12 A2976 RMK A01 T00301116  RH  033%=      5-min Rain = 0
KBR1 210216Z 20009KT 03/M12 A2976 RMK A01 T00301116  RH  033%=      5-min Rain = 0
KBR1 210217Z 20010KT 03/M12 A2976 RMK A01 T00301117  RH  033%=      5-min Rain = 0
KBR1 210218Z 20010KT 03/M12 A2976 RMK A01 T00291118  RH  033%=      5-min Rain = 0
KBR1 210219Z 20010KT 03/M12 A2976 RMK A01 T00291118  RH  033%=      5-min Rain = 0
KBR1 210220Z 20010KT 03/M12 A2977 RMK A01 T00291118  RH  033%=      5-min Rain = 0
KBR1 210221Z 20011KT 03/M12 A2977 RMK A01 T00281119  RH  033%=      5-min Rain = 0
KBR1 210222Z 20011KT 03/M12 A2977 RMK A01 T00281119  RH  033%=      5-min Rain = 0
KBR1 210223Z 19011KT 03/M12 A2977 RMK A01 T00281119  RH  033%=      5-min Rain = 0
KBR1 210224Z 20011KT 03/M12 A2977 RMK A01 T00281120  RH  033%=      5-min Rain = 0
KBR1 210225Z 20011KT 03/M12 A2977 RMK A01 T00291119  RH  033%=      5-min Rain = 0
KBR1 210226Z 19010KT 03/M12 A2977 RMK A01 T00291120  RH  032%=      5-min Rain = 0
KBR1 210227Z 19011KT 03/M12 A2977 RMK A01 T00281121  RH  032%=      5-min Rain = 0
KBR1 210228Z 19011KT 03/M12 A2977 RMK A01 T00271121  RH  033%=      5-min Rain = 0
KBR1 210229Z 19011KT 03/M12 A2977 RMK A01 T00261121  RH  033%=      5-min Rain = 0
KBR1 210230Z 20010KT 03/M12 A2977 RMK A01 T00251122  RH  033%=      5-min Rain = 0
KBR1 210231Z 20010KT 03/M12 A2977 RMK A01 T00251122  RH  033%=      5-min Rain = 0
KBR1 210232Z 20010KT 03/M12 A2977 RMK A01 T00251122  RH  033%=      5-min Rain = 0
KBR1 210233Z 20009KT 03/M12 A2977 RMK A01 T00251122  RH  033%=      5-min Rain = 0
KBR1 210234Z 20009KT 02/M12 A2977 RMK A01 T00241123  RH  033%=      5-min Rain = 0
KBR1 210235Z 20009KT 02/M12 A2977 RMK A01 T00231123  RH  033%=      5-min Rain = 0
KBR1 210236Z 20009KT 02/M12 A2977 RMK A01 T00221124  RH  033%=      5-min Rain = 0
KBR1 210237Z 20009KT 02/M12 A2977 RMK A01 T00211124  RH  033%=      5-min Rain = 0
KBR1 210238Z 21009KT 02/M12 A2977 RMK A01 T00211124  RH  033%=      5-min Rain = 0
KBR1 210239Z 21009KT 02/M12 A2977 RMK A01 T00201124  RH  033%=      5-min Rain = 0
KBR1 210240Z 20009KT 02/M13 A2977 RMK A01 T00191125  RH  034%=      5-min Rain = 0
KBR1 210241Z 20009KT 02/M13 A2978 RMK A01 T00191125  RH  034%=      5-min Rain = 0
KBR1 210242Z 21009KT 02/M13 A2978 RMK A01 T00181125  RH  034%=      5-min Rain = 0
KBR1 210243Z 21008KT 02/M13 A2978 RMK A01 T00161125  RH  034%=      5-min Rain = 0
KBR1 210244Z 21008KT 02/M13 A2978 RMK A01 T00161125  RH  034%=      5-min Rain = 0
KBR1 210245Z 21009KT 02/M13 A2978 RMK A01 T00161125  RH  034%=      5-min Rain = 0
KBR1 210246Z 21008KT 02/M13 A2978 RMK A01 T00151126  RH  034%=      5-min Rain = 0
KBR1 210247Z 21007KT 02/M13 A2978 RMK A01 T00161125  RH  034%=      5-min Rain = 0
KBR1 210248Z 21007KT 02/M13 A2978 RMK A01 T00151126  RH  034%=      5-min Rain = 0
KBR1 210249Z 21007KT 01/M13 A2978 RMK A01 T00141126  RH  034%=      5-min Rain = 0
KBR1 210250Z 21006KT 01/M13 A2978 RMK A01 T00121128  RH  035%=      5-min Rain = 0
KBR1 210251Z 21007KT 01/M13 A2978 RMK A01 T00101128  RH  035%=      5-min Rain = 0
KBR1 210252Z 21007KT 01/M13 A2978 RMK A01 T00091128  RH  035%=      5-min Rain = 0
KBR1 210253Z 21007KT 01/M13 A2978 RMK A01 T00081127  RH  035%=      5-min Rain = 0
KBR1 210254Z 21007KT 01/M13 A2978 RMK A01 T00081127  RH  036%=      5-min Rain = 0
KBR1 210255Z 21008KT 01/M13 A2978 RMK A01 T00071128  RH  036%=      5-min Rain = 0
KBR1 210256Z 20008KT 01/M13 A2978 RMK A01 T00071127  RH  036%=      5-min Rain = 0
KBR1 210257Z 20008KT 01/M13 A2978 RMK A01 T00061127  RH  036%=      5-min Rain = 0
KBR1 210258Z 20009KT 01/M13 A2978 RMK A01 T00071127  RH  036%=      5-min Rain = 0
KBR1 210259Z 20009KT 01/M13 A2978 RMK A01 T00071127  RH  036%=      5-min Rain = 0
KBR1 210300Z 19010KT 01/M13 A2978 RMK A01 T00071126  RH  036%=      5-min Rain = 0
KBR1 210301Z 19010KT 01/M13 A2978 RMK A01 T00071126  RH  036%=      5-min Rain = 0
KBR1 210302Z 19010KT 01/M13 A2978 RMK A01 T00081126  RH  036%=      5-min Rain = 0
KBR1 210303Z 18010KT 01/M13 A2978 RMK A01 T00091126  RH  036%=      5-min Rain = 0
KBR1 210304Z 17011KT 01/M13 A2978 RMK A01 T00091126  RH  036%=      5-min Rain = 0
KBR1 210305Z 18011KT 01/M13 A2978 RMK A01 T00091126  RH  036%=      5-min Rain = 0
KBR1 210306Z 18011KT 01/M13 A2978 RMK A01 T00091126  RH  036%=      5-min Rain = 0
KBR1 210307Z 18011KT 01/M13 A2979 RMK A01 T00101125  RH  036%=      5-min Rain = 0
KBR1 210308Z 17011KT 01/M13 A2979 RMK A01 T00101126  RH  035%=      5-min Rain = 0
KBR1 210309Z 18011KT 01/M13 A2979 RMK A01 T00111126  RH  035%=      5-min Rain = 0
KBR1 210310Z 18011KT 01/M13 A2979 RMK A01 T00121126  RH  035%=      5-min Rain = 0
KBR1 210311Z 19010KT 01/M13 A2979 RMK A01 T00121126  RH  035%=      5-min Rain = 0
KBR1 210312Z 19010KT 01/M13 A2979 RMK A01 T00131126  RH  035%=      5-min Rain = 0
KBR1 210313Z 19008KT 01/M13 A2979 RMK A01 T00131127  RH  034%=      5-min Rain = 0
KBR1 210314Z 20009KT 01/M13 A2979 RMK A01 T00121128  RH  034%=      5-min Rain = 0
KBR1 210315Z 20008KT 01/M13 A2979 RMK A01 T00111128  RH  035%=      5-min Rain = 0
KBR1 210316Z 20008KT 01/M13 A2979 RMK A01 T00091129  RH  035%=      5-min Rain = 0
KBR1 210317Z 20010KT 01/M13 A2979 RMK A01 T00081129  RH  035%=      5-min Rain = 0
KBR1 210318Z 21010KT 01/M13 A2979 RMK A01 T00081128  RH  035%=      5-min Rain = 0
KBR1 210319Z 21010KT 01/M13 A2979 RMK A01 T00111126  RH  035%=      5-min Rain = 0
KBR1 210320Z 21010KT 01/M13 A2979 RMK A01 T00131125  RH  035%=      5-min Rain = 0
KBR1 210321Z 22009KT 01/M13 A2979 RMK A01 T00131126  RH  035%=      5-min Rain = 0
KBR1 210322Z 22009KT 01/M13 A2979 RMK A01 T00131127  RH  035%=      5-min Rain = 0
KBR1 210323Z 22008KT 01/M13 A2979 RMK A01 T00121128  RH  035%=      5-min Rain = 0
KBR1 210324Z 22009KT 01/M13 A2979 RMK A01 T00091129  RH  035%=      5-min Rain = 0
KBR1 210325Z 23009KT 01/M13 A2979 RMK A01 T00071130  RH  035%=      5-min Rain = 0
KBR1 210326Z 23009KT 01/M13 A2979 RMK A01 T00051130  RH  036%=      5-min Rain = 0
KBR1 210327Z 23009KT 00/M13 A2979 RMK A01 T00031131  RH  036%=      5-min Rain = 0
KBR1 210328Z 24009KT 00/M13 A2979 RMK A01 T00011132  RH  036%=      5-min Rain = 0
KBR1 210329Z 23009KT M00/M13 A2979 RMK A01 T10011132  RH  037%=      5-min Rain = 0
KBR1 210330Z 23008KT M00/M13 A2979 RMK A01 T10031133  RH  037%=      5-min Rain = 0
KBR1 210331Z 23009KT M01/M13 A2979 RMK A01 T10051132  RH  038%=      5-min Rain = 0
KBR1 210332Z 23009KT M01/M13 A2979 RMK A01 T10051131  RH  038%=      5-min Rain = 0
KBR1 210333Z 23009KT M01/M13 A2979 RMK A01 T10061132  RH  038%=      5-min Rain = 0
KBR1 210334Z 23008KT M01/M13 A2979 RMK A01 T10061132  RH  038%=      5-min Rain = 0
KBR1 210335Z 23008KT M01/M13 A2979 RMK A01 T10081133  RH  038%=      5-min Rain = 0
KBR1 210336Z 24008KT M01/M13 A2979 RMK A01 T10091134  RH  038%=      5-min Rain = 0
KBR1 210337Z 24008KT M01/M13 A2979 RMK A01 T10101133  RH  038%=      5-min Rain = 0
KBR1 210338Z 24008KT M01/M13 A2979 RMK A01 T10101133  RH  039%=      5-min Rain = 0
KBR1 210339Z 24008KT M01/M13 A2979 RMK A01 T10071131  RH  039%=      5-min Rain = 0
KBR1 210340Z 24008KT M00/M13 A2979 RMK A01 T10041130  RH  038%=      5-min Rain = 0
KBR1 210341Z 25008KT M00/M13 A2979 RMK A01 T10021129  RH  038%=      5-min Rain = 0
KBR1 210342Z 25007KT 00/M13 A2979 RMK A01 T00011129  RH  037%=      5-min Rain = 0
KBR1 210343Z 24007KT 00/M13 A2979 RMK A01 T00021130  RH  036%=      5-min Rain = 0
KBR1 210344Z 25008KT 00/M13 A2979 RMK A01 T00021131  RH  036%=      5-min Rain = 0
KBR1 210345Z 25008KT 00/M13 A2979 RMK A01 T00031130  RH  036%=      5-min Rain = 0
KBR1 210346Z 25007KT 00/M13 A2979 RMK A01 T00041130  RH  036%=      5-min Rain = 0
KBR1 210347Z 25007KT 00/M13 A2979 RMK A01 T00041129  RH  036%=      5-min Rain = 0
KBR1 210348Z 26008KT 00/M13 A2979 RMK A01 T00041129  RH  036%=      5-min Rain = 0
KBR1 210349Z 26008KT 00/M13 A2979 RMK A01 T00041128  RH  036%=      5-min Rain = 0
KBR1 210350Z 25009KT 01/M13 A2979 RMK A01 T00061127  RH  036%=      5-min Rain = 0
KBR1 210351Z 25009KT 01/M13 A2979 RMK A01 T00081126  RH  036%=      5-min Rain = 0
KBR1 210352Z 25008KT 01/M13 A2979 RMK A01 T00111126  RH  035%=      5-min Rain = 0
KBR1 210353Z 25008KT 01/M13 A2979 RMK A01 T00111127  RH  035%=      5-min Rain = 0
KBR1 210354Z 25007KT 01/M13 A2979 RMK A01 T00111128  RH  035%=      5-min Rain = 0
KBR1 210355Z 25008KT 01/M13 A2979 RMK A01 T00091129  RH  035%=      5-min Rain = 0
KBR1 210356Z 25008KT 01/M13 A2979 RMK A01 T00081129  RH  035%=      5-min Rain = 0
KBR1 210357Z 26007KT 01/M13 A2979 RMK A01 T00071130  RH  035%=      5-min Rain = 0
KBR1 210358Z 26008KT 01/M13 A2979 RMK A01 T00061130  RH  035%=      5-min Rain = 0
KBR1 210359Z 26009KT 00/M13 A2979 RMK A01 T00041131  RH  036%=      5-min Rain = 0
KBR1 210400Z 26008KT 00/M13 A2979 RMK A01 T00041131  RH  036%=      5-min Rain = 0
KBR1 210401Z 26007KT 00/M13 A2979 RMK A01 T00031131  RH  036%=      5-min Rain = 0
KBR1 210402Z 25007KT 00/M13 A2979 RMK A01 T00021131  RH  036%=      5-min Rain = 0
KBR1 210403Z 25006KT 00/M13 A2979 RMK A01 T00021132  RH  036%=      5-min Rain = 0
KBR1 210404Z 25007KT 00/M13 A2979 RMK A01 T00031131  RH  036%=      5-min Rain = 0
KBR1 210405Z 26007KT 00/M13 A2979 RMK A01 T00041130  RH  036%=      5-min Rain = 0
KBR1 210406Z 26007KT 00/M13 A2979 RMK A01 T00041130  RH  036%=      5-min Rain = 0
KBR1 210407Z 26008KT 00/M13 A2979 RMK A01 T00031132  RH  035%=      5-min Rain = 0
KBR1 210408Z 26008KT 00/M13 A2979 RMK A01 T00011133  RH  036%=      5-min Rain = 0
KBR1 210409Z 26008KT 00/13 A2979 RMK A01 T00-00-132  RH  036%=      5-min Rain = 0
KBR1 210410Z 26008KT 00/13 A2979 RMK A01 T00000-131  RH  036%=      5-min Rain = 0
KBR1 210411Z 26007KT 00/M13 A2979 RMK A01 T00011131  RH  036%=      5-min Rain = 0
KBR1 210412Z 26007KT 00/M13 A2979 RMK A01 T00011131  RH  036%=      5-min Rain = 0
KBR1 210413Z 25005KT 00/13 A2979 RMK A01 T00000-132  RH  036%=      5-min Rain = 0
KBR1 210414Z 23004KT M00/M13 A2979 RMK A01 T10011132  RH  037%=      5-min Rain = 0
KBR1 210415Z 22004KT M00/M13 A2979 RMK A01 T10041133  RH  037%=      5-min Rain = 0
KBR1 210416Z 23004KT M01/M13 A2979 RMK A01 T10051134  RH  037%=      5-min Rain = 0
KBR1 210417Z 23004KT M00/M13 A2979 RMK A01 T10041132  RH  037%=      5-min Rain = 0
KBR1 210418Z 24004KT M00/M13 A2979 RMK A01 T10031131  RH  037%=      5-min Rain = 0
KBR1 210419Z 24005KT M00/M13 A2979 RMK A01 T10021131  RH  037%=      5-min Rain = 0
KBR1 210420Z 24004KT M00/M13 A2979 RMK A01 T10011132  RH  037%=      5-min Rain = 0
KBR1 210421Z 24005KT M00/M13 A2979 RMK A01 T10021132  RH  037%=      5-min Rain = 0
KBR1 210422Z 25004KT M00/M13 A2979 RMK A01 T10021132  RH  037%=      5-min Rain = 0
KBR1 210423Z 25005KT M00/M13 A2979 RMK A01 T10021131  RH  037%=      5-min Rain = 0
KBR1 210424Z 26004KT M00/M13 A2979 RMK A01 T10011132  RH  037%=      5-min Rain = 0
KBR1 210425Z 25005KT 00/13 A2979 RMK A01 T00-00-132  RH  036%=      5-min Rain = 0
KBR1 210426Z 26005KT 00/13 A2979 RMK A01 T00-00-132  RH  036%=      5-min Rain = 0
KBR1 210427Z 26006KT M00/M13 A2979 RMK A01 T10021133  RH  036%=      5-min Rain = 0
KBR1 210428Z 27006KT M00/M13 A2979 RMK A01 T10021132  RH  037%=      5-min Rain = 0
KBR1 210429Z 27006KT M00/M13 A2979 RMK A01 T10031132  RH  037%=      5-min Rain = 0
KBR1 210430Z 27006KT M00/M13 A2979 RMK A01 T10041133  RH  037%=      5-min Rain = 0
KBR1 210431Z 27006KT M01/M13 A2979 RMK A01 T10051133  RH  037%=      5-min Rain = 0
KBR1 210432Z 26006KT M01/M13 A2979 RMK A01 T10061133  RH  038%=      5-min Rain = 0
KBR1 210433Z 26006KT M01/M13 A2979 RMK A01 T10061133  RH  038%=      5-min Rain = 0
KBR1 210434Z 25005KT M01/M13 A298 RMK A01 T10061132  RH  038%=      5-min Rain = 0
KBR1 210435Z 24005KT M01/M13 A298 RMK A01 T10071133  RH  038%=      5-min Rain = 0
KBR1 210436Z 23005KT M01/M13 A298 RMK A01 T10081132  RH  038%=      5-min Rain = 0
KBR1 210437Z 23004KT M01/M13 A298 RMK A01 T10071132  RH  038%=      5-min Rain = 0
KBR1 210438Z 23004KT M01/M13 A298 RMK A01 T10061131  RH  038%=      5-min Rain = 0
KBR1 210439Z 22004KT M01/M13 A298 RMK A01 T10061132  RH  038%=      5-min Rain = 0
KBR1 210440Z 22005KT M01/M13 A298 RMK A01 T10061132  RH  038%=      5-min Rain = 0
KBR1 210441Z 21005KT M01/M13 A298 RMK A01 T10071134  RH  038%=      5-min Rain = 0
KBR1 210442Z 21005KT M01/M14 A298 RMK A01 T10111137  RH  038%=      5-min Rain = 0
KBR1 210443Z 22005KT M02/M14 A298 RMK A01 T10151138  RH  039%=      5-min Rain = 0
KBR1 210444Z 23004KT M02/M14 A298 RMK A01 T10171136  RH  040%=      5-min Rain = 0
KBR1 210445Z 22004KT M02/M13 A298 RMK A01 T10171134  RH  040%=      5-min Rain = 0
KBR1 210446Z 22004KT M02/M13 A298 RMK A01 T10171134  RH  041%=      5-min Rain = 0
KBR1 210447Z 22004KT M02/M13 A298 RMK A01 T10171134  RH  041%=      5-min Rain = 0
KBR1 210448Z 23004KT M02/M13 A2979 RMK A01 T10171134  RH  041%=      5-min Rain = 0
KBR1 210449Z 24004KT M02/M13 A2979 RMK A01 T10171134  RH  041%=      5-min Rain = 0
KBR1 210450Z 25004KT M02/M13 A2979 RMK A01 T10181134  RH  041%=      5-min Rain = 0
KBR1 210451Z 27003KT M02/M13 A2979 RMK A01 T10191134  RH  041%=      5-min Rain = 0
KBR1 210452Z 27003KT M02/M14 A2979 RMK A01 T10201135  RH  041%=      5-min Rain = 0
KBR1 210453Z 27003KT M02/M14 A2979 RMK A01 T10211135  RH  042%=      5-min Rain = 0
KBR1 210454Z 27003KT M02/M13 A2979 RMK A01 T10221134  RH  042%=      5-min Rain = 0
KBR1 210455Z 27003KT M02/M14 A2979 RMK A01 T10231135  RH  042%=      5-min Rain = 0
KBR1 210456Z 27003KT M02/M14 A2979 RMK A01 T10231135  RH  042%=      5-min Rain = 0
KBR1 210457Z 28003KT M02/M13 A2979 RMK A01 T10221134  RH  042%=      5-min Rain = 0
KBR1 210458Z 28005KT M02/M13 A298 RMK A01 T10221134  RH  042%=      5-min Rain = 0
KBR1 210459Z 28005KT M02/M13 A298 RMK A01 T10211133  RH  042%=      5-min Rain = 0
KBR1 210500Z 28005KT M02/M13 A298 RMK A01 T10201133  RH  042%=      5-min Rain = 0
KBR1 210501Z 28005KT M02/M13 A298 RMK A01 T10191133  RH  041%=      5-min Rain = 0
KBR1 210502Z 27005KT M02/M13 A298 RMK A01 T10181133  RH  041%=      5-min Rain = 0
KBR1 210503Z 26004KT M02/M13 A298 RMK A01 T10171133  RH  041%=      5-min Rain = 0
KBR1 210504Z 26004KT M02/M13 A298 RMK A01 T10171133  RH  041%=      5-min Rain = 0
KBR1 210505Z 25004KT M02/M13 A298 RMK A01 T10171133  RH  041%=      5-min Rain = 0
KBR1 210506Z 24004KT M02/M13 A298 RMK A01 T10171133  RH  041%=      5-min Rain = 0
KBR1 210507Z 24004KT M02/M13 A298 RMK A01 T10171133  RH  041%=      5-min Rain = 0
KBR1 210508Z 24004KT M02/M13 A298 RMK A01 T10171133  RH  041%=      5-min Rain = 0
KBR1 210509Z 24004KT M02/M13 A2979 RMK A01 T10181134  RH  041%=      5-min Rain = 0
KBR1 210510Z 25003KT M02/M13 A2979 RMK A01 T10181133  RH  041%=      5-min Rain = 0
KBR1 210511Z 25004KT M02/M13 A2979 RMK A01 T10171133  RH  041%=      5-min Rain = 0
KBR1 210512Z 26004KT M02/M13 A2979 RMK A01 T10161132  RH  041%=      5-min Rain = 0
KBR1 210513Z 26003KT M01/M13 A2979 RMK A01 T10141132  RH  040%=      5-min Rain = 0
KBR1 210514Z 27003KT M01/M13 A2979 RMK A01 T10141132  RH  040%=      5-min Rain = 0
KBR1 210515Z 27003KT M01/M13 A2979 RMK A01 T10141133  RH  040%=      5-min Rain = 0
KBR1 210516Z 26003KT M02/M13 A2979 RMK A01 T10161134  RH  040%=      5-min Rain = 0
KBR1 210517Z 26003KT M02/M13 A2979 RMK A01 T10181134  RH  041%=      5-min Rain = 0
KBR1 210518Z 26002KT M02/M13 A2979 RMK A01 T10191133  RH  041%=      5-min Rain = 0
KBR1 210519Z 27003KT M02/M13 A2979 RMK A01 T10191133  RH  041%=      5-min Rain = 0
KBR1 210520Z 27002KT M02/M13 A2979 RMK A01 T10191133  RH  041%=      5-min Rain = 0
KBR1 210521Z 26003KT M02/M13 A2979 RMK A01 T10191134  RH  041%=      5-min Rain = 0
KBR1 210522Z 25003KT M02/M13 A2979 RMK A01 T10191134  RH  041%=      5-min Rain = 0
KBR1 210523Z 25003KT M02/M13 A2979 RMK A01 T10181133  RH  041%=      5-min Rain = 0
KBR1 210524Z 25003KT M02/M13 A2979 RMK A01 T10181133  RH  041%=      5-min Rain = 0
KBR1 210525Z 26003KT M02/M13 A2979 RMK A01 T10171132  RH  041%=      5-min Rain = 0
KBR1 210526Z 26003KT M02/M13 A2979 RMK A01 T10161132  RH  041%=      5-min Rain = 0
KBR1 210527Z 26004KT M02/M13 A2979 RMK A01 T10151132  RH  040%=      5-min Rain = 0
KBR1 210528Z 26003KT M01/M13 A2979 RMK A01 T10131132  RH  040%=      5-min Rain = 0
KBR1 210529Z 26003KT M01/M13 A2979 RMK A01 T10131133  RH  040%=      5-min Rain = 0
KBR1 210530Z 26002KT M01/M13 A2979 RMK A01 T10131133  RH  040%=      5-min Rain = 0
KBR1 210531Z 25003KT M01/M13 A2979 RMK A01 T10141134  RH  040%=      5-min Rain = 0
KBR1 210532Z 25002KT M02/M13 A2979 RMK A01 T10151134  RH  040%=      5-min Rain = 0
KBR1 210533Z 25003KT M02/M13 A2979 RMK A01 T10171134  RH  040%=      5-min Rain = 0
KBR1 210534Z 27002KT M02/M13 A2979 RMK A01 T10171134  RH  041%=      5-min Rain = 0
KBR1 210535Z 25002KT M02/M13 A2979 RMK A01 T10181134  RH  041%=      5-min Rain = 0
KBR1 210536Z 25002KT M02/M13 A2979 RMK A01 T10181134  RH  041%=      5-min Rain = 0
KBR1 210537Z 26003KT M02/M13 A2979 RMK A01 T10181133  RH  041%=      5-min Rain = 0
KBR1 210538Z 26003KT M02/M13 A2979 RMK A01 T10181134  RH  041%=      5-min Rain = 0
KBR1 210539Z 26002KT M02/M13 A2979 RMK A01 T10181134  RH  041%=      5-min Rain = 0
KBR1 210540Z 26002KT M02/M13 A2979 RMK A01 T10181134  RH  041%=      5-min Rain = 0
KBR1 210541Z 26001KT M02/M13 A2979 RMK A01 T10191134  RH  041%=      5-min Rain = 0
KBR1 210542Z 26001KT M02/M13 A2979 RMK A01 T10201134  RH  041%=      5-min Rain = 0
KBR1 210543Z 25001KT M02/M13 A2979 RMK A01 T10201134  RH  041%=      5-min Rain = 0
KBR1 210544Z 26001KT M02/M13 A2979 RMK A01 T10201134  RH  041%=      5-min Rain = 0
KBR1 210545Z 26001KT M02/M13 A2979 RMK A01 T10211134  RH  042%=      5-min Rain = 0
KBR1 210546Z 27001KT M02/M13 A2979 RMK A01 T10211134  RH  042%=      5-min Rain = 0
KBR1 210547Z 27001KT M02/M13 A2979 RMK A01 T10221134  RH  042%=      5-min Rain = 0
KBR1 210548Z 28002KT M02/M13 A2979 RMK A01 T10221134  RH  042%=      5-min Rain = 0
KBR1 210549Z 27002KT M02/M13 A2979 RMK A01 T10221134  RH  042%=      5-min Rain = 0
KBR1 210550Z 26001KT M02/M13 A2979 RMK A01 T10221134  RH  042%=      5-min Rain = 0
KBR1 210551Z 25001KT M02/M13 A2979 RMK A01 T10221133  RH  042%=      5-min Rain = 0
KBR1 210552Z 25002KT M02/M13 A2979 RMK A01 T10211133  RH  042%=      5-min Rain = 0
KBR1 210553Z 23002KT M02/M13 A2979 RMK A01 T10211133  RH  042%=      5-min Rain = 0
KBR1 210554Z 23002KT M02/M13 A2979 RMK A01 T10201133  RH  042%=      5-min Rain = 0
KBR1 210555Z 24002KT M02/M13 A2979 RMK A01 T10191133  RH  042%=      5-min Rain = 0
KBR1 210556Z 24002KT M02/M13 A2979 RMK A01 T10181132  RH  041%=      5-min Rain = 0
KBR1 210557Z 24002KT M02/M13 A2979 RMK A01 T10171132  RH  041%=      5-min Rain = 0
KBR1 210558Z 23002KT M02/M13 A2979 RMK A01 T10161132  RH  041%=      5-min Rain = 0
KBR1 210559Z 23002KT M02/M13 A2979 RMK A01 T10161133  RH  041%=      5-min Rain = 0

Page generated in 0.1099 seconds.